<?xml version="1.0" encoding="UTF-8" standalone="no" ?>
<gpx xmlns="http://www.topografix.com/GPX/1/1" xmlns:xsi="http://www.w3.org/2001/XMLSchema-instance" xsi:schemaLocation="http://www.topografix.com/GPX/1/1 http://www.topografix.com/GPX/1/1/gpx.xsd" version="1.1" creator="VisuGPX - https://www.visugpx.com">
  <metadata>
    <name>Boucle La Marinette (Belmont) - Saint Privat du Dragon (Haut Allier - Haute Loire)</name>
    <desc><![CDATA[Boucle La Marinette (Belmont) - Saint Privat du Dragon (Haut Allier - Haute Loire) [16 août 2020]]]></desc>
  </metadata>
  <trk>
    <name><![CDATA[Boucle La Marinette - Saint Privat du Dragon]]></name>
    <trkseg>
      <trkpt lat="45.17344" lon="3.42908">
        <ele>680.397</ele>
        <time>2020-08-16T13:42:39Z</time>
      </trkpt>
      <trkpt lat="45.17346" lon="3.4291">
        <ele>684.745</ele>
        <time>2020-08-16T13:42:40Z</time>
      </trkpt>
      <trkpt lat="45.17346" lon="3.42917">
        <ele>682.558</ele>
        <time>2020-08-16T13:42:45Z</time>
      </trkpt>
      <trkpt lat="45.17347" lon="3.42929">
        <ele>684.859</ele>
        <time>2020-08-16T13:42:54Z</time>
      </trkpt>
      <trkpt lat="45.17347" lon="3.42935">
        <ele>687.025</ele>
        <time>2020-08-16T13:42:57Z</time>
      </trkpt>
      <trkpt lat="45.17345" lon="3.42961">
        <ele>689.163</ele>
        <time>2020-08-16T13:43:14Z</time>
      </trkpt>
      <trkpt lat="45.17341" lon="3.42978">
        <ele>687.089</ele>
        <time>2020-08-16T13:43:26Z</time>
      </trkpt>
      <trkpt lat="45.17339" lon="3.42984">
        <ele>685.985</ele>
        <time>2020-08-16T13:43:30Z</time>
      </trkpt>
      <trkpt lat="45.17337" lon="3.42988">
        <ele>685.902</ele>
        <time>2020-08-16T13:43:34Z</time>
      </trkpt>
      <trkpt lat="45.17337" lon="3.42989">
        <ele>686.346</ele>
        <time>2020-08-16T13:43:36Z</time>
      </trkpt>
      <trkpt lat="45.17337" lon="3.42989">
        <ele>687.553</ele>
        <time>2020-08-16T13:43:45Z</time>
      </trkpt>
      <trkpt lat="45.17338" lon="3.42988">
        <ele>688.193</ele>
        <time>2020-08-16T13:43:46Z</time>
      </trkpt>
      <trkpt lat="45.17338" lon="3.42988">
        <ele>688.666</ele>
        <time>2020-08-16T13:43:48Z</time>
      </trkpt>
      <trkpt lat="45.17338" lon="3.42988">
        <ele>689.599</ele>
        <time>2020-08-16T13:43:50Z</time>
      </trkpt>
      <trkpt lat="45.17338" lon="3.42988">
        <ele>689.82</ele>
        <time>2020-08-16T13:43:51Z</time>
      </trkpt>
      <trkpt lat="45.17338" lon="3.42989">
        <ele>689.368</ele>
        <time>2020-08-16T13:43:53Z</time>
      </trkpt>
      <trkpt lat="45.17337" lon="3.42992">
        <ele>687.309</ele>
        <time>2020-08-16T13:43:55Z</time>
      </trkpt>
      <trkpt lat="45.17335" lon="3.42995">
        <ele>685.574</ele>
        <time>2020-08-16T13:43:58Z</time>
      </trkpt>
      <trkpt lat="45.17333" lon="3.42999">
        <ele>684.406</ele>
        <time>2020-08-16T13:44:01Z</time>
      </trkpt>
      <trkpt lat="45.17329" lon="3.43003">
        <ele>681.329</ele>
        <time>2020-08-16T13:44:07Z</time>
      </trkpt>
      <trkpt lat="45.17327" lon="3.43006">
        <ele>681.689</ele>
        <time>2020-08-16T13:44:09Z</time>
      </trkpt>
      <trkpt lat="45.17324" lon="3.43016">
        <ele>681.071</ele>
        <time>2020-08-16T13:44:13Z</time>
      </trkpt>
      <trkpt lat="45.17317" lon="3.43033">
        <ele>680.594</ele>
        <time>2020-08-16T13:44:23Z</time>
      </trkpt>
      <trkpt lat="45.17317" lon="3.43034">
        <ele>679.104</ele>
        <time>2020-08-16T13:44:24Z</time>
      </trkpt>
      <trkpt lat="45.17317" lon="3.43034">
        <ele>679.104</ele>
        <time>2020-08-16T13:44:24Z</time>
      </trkpt>
      <trkpt lat="45.17317" lon="3.43034">
        <ele>678.908</ele>
        <time>2020-08-16T13:44:25Z</time>
      </trkpt>
      <trkpt lat="45.17317" lon="3.43034">
        <ele>678.951</ele>
        <time>2020-08-16T13:44:37Z</time>
      </trkpt>
      <trkpt lat="45.17318" lon="3.43038">
        <ele>678.011</ele>
        <time>2020-08-16T13:44:38Z</time>
      </trkpt>
      <trkpt lat="45.17317" lon="3.4304">
        <ele>677.547</ele>
        <time>2020-08-16T13:44:40Z</time>
      </trkpt>
      <trkpt lat="45.17314" lon="3.43044">
        <ele>678.228</ele>
        <time>2020-08-16T13:44:42Z</time>
      </trkpt>
      <trkpt lat="45.1731" lon="3.43051">
        <ele>677.314</ele>
        <time>2020-08-16T13:44:46Z</time>
      </trkpt>
      <trkpt lat="45.17299" lon="3.43075">
        <ele>675.231</ele>
        <time>2020-08-16T13:45:01Z</time>
      </trkpt>
      <trkpt lat="45.17294" lon="3.43089">
        <ele>672.798</ele>
        <time>2020-08-16T13:45:08Z</time>
      </trkpt>
      <trkpt lat="45.17289" lon="3.43108">
        <ele>670.079</ele>
        <time>2020-08-16T13:45:17Z</time>
      </trkpt>
      <trkpt lat="45.17289" lon="3.4312">
        <ele>669.881</ele>
        <time>2020-08-16T13:45:23Z</time>
      </trkpt>
      <trkpt lat="45.1729" lon="3.4313">
        <ele>669.194</ele>
        <time>2020-08-16T13:45:28Z</time>
      </trkpt>
      <trkpt lat="45.17293" lon="3.43137">
        <ele>668.689</ele>
        <time>2020-08-16T13:45:32Z</time>
      </trkpt>
      <trkpt lat="45.17294" lon="3.43139">
        <ele>669.385</ele>
        <time>2020-08-16T13:45:35Z</time>
      </trkpt>
      <trkpt lat="45.17294" lon="3.43139">
        <ele>669.542</ele>
        <time>2020-08-16T13:45:41Z</time>
      </trkpt>
      <trkpt lat="45.17294" lon="3.43141">
        <ele>669.543</ele>
        <time>2020-08-16T13:45:42Z</time>
      </trkpt>
      <trkpt lat="45.17295" lon="3.43145">
        <ele>669.538</ele>
        <time>2020-08-16T13:45:44Z</time>
      </trkpt>
      <trkpt lat="45.17306" lon="3.43163">
        <ele>670.05</ele>
        <time>2020-08-16T13:45:55Z</time>
      </trkpt>
      <trkpt lat="45.17324" lon="3.43189">
        <ele>667.829</ele>
        <time>2020-08-16T13:46:12Z</time>
      </trkpt>
      <trkpt lat="45.17341" lon="3.43213">
        <ele>669.54</ele>
        <time>2020-08-16T13:46:28Z</time>
      </trkpt>
      <trkpt lat="45.17344" lon="3.43216">
        <ele>670.087</ele>
        <time>2020-08-16T13:46:31Z</time>
      </trkpt>
      <trkpt lat="45.17346" lon="3.43218">
        <ele>669.972</ele>
        <time>2020-08-16T13:46:33Z</time>
      </trkpt>
      <trkpt lat="45.17384" lon="3.43252">
        <ele>672.123</ele>
        <time>2020-08-16T13:47:11Z</time>
      </trkpt>
      <trkpt lat="45.17405" lon="3.43274">
        <ele>674.421</ele>
        <time>2020-08-16T13:47:35Z</time>
      </trkpt>
      <trkpt lat="45.17424" lon="3.433">
        <ele>676.44</ele>
        <time>2020-08-16T13:48:01Z</time>
      </trkpt>
      <trkpt lat="45.17429" lon="3.43312">
        <ele>678.7</ele>
        <time>2020-08-16T13:48:11Z</time>
      </trkpt>
      <trkpt lat="45.1744" lon="3.43336">
        <ele>680.759</ele>
        <time>2020-08-16T13:48:30Z</time>
      </trkpt>
      <trkpt lat="45.17441" lon="3.4334">
        <ele>680.544</ele>
        <time>2020-08-16T13:48:34Z</time>
      </trkpt>
      <trkpt lat="45.17449" lon="3.43357">
        <ele>682.487</ele>
        <time>2020-08-16T13:48:50Z</time>
      </trkpt>
      <trkpt lat="45.17451" lon="3.43361">
        <ele>682.589</ele>
        <time>2020-08-16T13:48:53Z</time>
      </trkpt>
      <trkpt lat="45.17458" lon="3.43375">
        <ele>684.678</ele>
        <time>2020-08-16T13:49:05Z</time>
      </trkpt>
      <trkpt lat="45.17468" lon="3.43393">
        <ele>686.836</ele>
        <time>2020-08-16T13:49:21Z</time>
      </trkpt>
      <trkpt lat="45.17479" lon="3.4341">
        <ele>689.104</ele>
        <time>2020-08-16T13:49:38Z</time>
      </trkpt>
      <trkpt lat="45.17496" lon="3.4343">
        <ele>690.008</ele>
        <time>2020-08-16T13:50:01Z</time>
      </trkpt>
      <trkpt lat="45.17496" lon="3.4343">
        <ele>689.941</ele>
        <time>2020-08-16T13:50:02Z</time>
      </trkpt>
      <trkpt lat="45.17496" lon="3.4343">
        <ele>689.861</ele>
        <time>2020-08-16T13:50:04Z</time>
      </trkpt>
      <trkpt lat="45.17497" lon="3.43432">
        <ele>690.15</ele>
        <time>2020-08-16T13:50:05Z</time>
      </trkpt>
      <trkpt lat="45.175" lon="3.43437">
        <ele>690.564</ele>
        <time>2020-08-16T13:50:12Z</time>
      </trkpt>
      <trkpt lat="45.175" lon="3.43437">
        <ele>690.564</ele>
        <time>2020-08-16T13:50:12Z</time>
      </trkpt>
      <trkpt lat="45.17501" lon="3.43438">
        <ele>690.371</ele>
        <time>2020-08-16T13:50:13Z</time>
      </trkpt>
      <trkpt lat="45.17512" lon="3.43453">
        <ele>692.526</ele>
        <time>2020-08-16T13:50:29Z</time>
      </trkpt>
      <trkpt lat="45.17517" lon="3.43461">
        <ele>693.078</ele>
        <time>2020-08-16T13:50:37Z</time>
      </trkpt>
      <trkpt lat="45.17521" lon="3.43469">
        <ele>695.177</ele>
        <time>2020-08-16T13:50:45Z</time>
      </trkpt>
      <trkpt lat="45.17535" lon="3.43491">
        <ele>697.256</ele>
        <time>2020-08-16T13:51:05Z</time>
      </trkpt>
      <trkpt lat="45.17545" lon="3.43504">
        <ele>699.287</ele>
        <time>2020-08-16T13:51:18Z</time>
      </trkpt>
      <trkpt lat="45.17547" lon="3.43507">
        <ele>698.856</ele>
        <time>2020-08-16T13:51:21Z</time>
      </trkpt>
      <trkpt lat="45.17557" lon="3.43522">
        <ele>699.518</ele>
        <time>2020-08-16T13:51:34Z</time>
      </trkpt>
      <trkpt lat="45.17565" lon="3.43537">
        <ele>701.961</ele>
        <time>2020-08-16T13:51:46Z</time>
      </trkpt>
      <trkpt lat="45.17568" lon="3.43546">
        <ele>701.272</ele>
        <time>2020-08-16T13:51:53Z</time>
      </trkpt>
      <trkpt lat="45.17602" lon="3.43664">
        <ele>699.314</ele>
        <time>2020-08-16T13:53:19Z</time>
      </trkpt>
      <trkpt lat="45.17602" lon="3.43668">
        <ele>698.769</ele>
        <time>2020-08-16T13:53:23Z</time>
      </trkpt>
      <trkpt lat="45.17603" lon="3.43668">
        <ele>699.4</ele>
        <time>2020-08-16T13:53:24Z</time>
      </trkpt>
      <trkpt lat="45.17603" lon="3.43669">
        <ele>699.593</ele>
        <time>2020-08-16T13:53:26Z</time>
      </trkpt>
      <trkpt lat="45.17603" lon="3.4367">
        <ele>699.587</ele>
        <time>2020-08-16T13:53:27Z</time>
      </trkpt>
      <trkpt lat="45.17605" lon="3.43683">
        <ele>699.093</ele>
        <time>2020-08-16T13:53:35Z</time>
      </trkpt>
      <trkpt lat="45.17609" lon="3.43699">
        <ele>697.646</ele>
        <time>2020-08-16T13:53:44Z</time>
      </trkpt>
      <trkpt lat="45.17621" lon="3.43731">
        <ele>695.586</ele>
        <time>2020-08-16T13:54:08Z</time>
      </trkpt>
      <trkpt lat="45.17648" lon="3.43791">
        <ele>693.342</ele>
        <time>2020-08-16T13:54:51Z</time>
      </trkpt>
      <trkpt lat="45.17661" lon="3.43818">
        <ele>691.218</ele>
        <time>2020-08-16T13:55:11Z</time>
      </trkpt>
      <trkpt lat="45.17665" lon="3.43828">
        <ele>692.345</ele>
        <time>2020-08-16T13:55:20Z</time>
      </trkpt>
      <trkpt lat="45.17666" lon="3.43828">
        <ele>692.232</ele>
        <time>2020-08-16T13:55:23Z</time>
      </trkpt>
      <trkpt lat="45.17666" lon="3.43828">
        <ele>691.966</ele>
        <time>2020-08-16T13:55:28Z</time>
      </trkpt>
      <trkpt lat="45.17666" lon="3.43828">
        <ele>692.009</ele>
        <time>2020-08-16T13:55:29Z</time>
      </trkpt>
      <trkpt lat="45.17668" lon="3.43831">
        <ele>690.813</ele>
        <time>2020-08-16T13:55:32Z</time>
      </trkpt>
      <trkpt lat="45.17671" lon="3.43839">
        <ele>691.156</ele>
        <time>2020-08-16T13:55:41Z</time>
      </trkpt>
      <trkpt lat="45.17671" lon="3.43839">
        <ele>691.156</ele>
        <time>2020-08-16T13:55:41Z</time>
      </trkpt>
      <trkpt lat="45.17671" lon="3.43839">
        <ele>691.133</ele>
        <time>2020-08-16T13:55:42Z</time>
      </trkpt>
      <trkpt lat="45.17672" lon="3.43841">
        <ele>691.025</ele>
        <time>2020-08-16T13:55:46Z</time>
      </trkpt>
      <trkpt lat="45.17672" lon="3.43841">
        <ele>691.146</ele>
        <time>2020-08-16T13:55:49Z</time>
      </trkpt>
      <trkpt lat="45.17672" lon="3.43841">
        <ele>691.146</ele>
        <time>2020-08-16T13:55:49Z</time>
      </trkpt>
      <trkpt lat="45.17672" lon="3.43842">
        <ele>691.066</ele>
        <time>2020-08-16T13:55:50Z</time>
      </trkpt>
      <trkpt lat="45.17672" lon="3.43842">
        <ele>690.099</ele>
        <time>2020-08-16T13:55:51Z</time>
      </trkpt>
      <trkpt lat="45.17672" lon="3.43842">
        <ele>690.171</ele>
        <time>2020-08-16T13:56:08Z</time>
      </trkpt>
      <trkpt lat="45.17673" lon="3.43843">
        <ele>690.061</ele>
        <time>2020-08-16T13:56:09Z</time>
      </trkpt>
      <trkpt lat="45.17673" lon="3.43843">
        <ele>690.155</ele>
        <time>2020-08-16T13:56:10Z</time>
      </trkpt>
      <trkpt lat="45.17673" lon="3.43843">
        <ele>689.843</ele>
        <time>2020-08-16T13:56:54Z</time>
      </trkpt>
      <trkpt lat="45.17673" lon="3.43843">
        <ele>689.801</ele>
        <time>2020-08-16T13:56:55Z</time>
      </trkpt>
      <trkpt lat="45.17673" lon="3.43844">
        <ele>689.944</ele>
        <time>2020-08-16T13:56:57Z</time>
      </trkpt>
      <trkpt lat="45.17675" lon="3.43847">
        <ele>690.827</ele>
        <time>2020-08-16T13:57:02Z</time>
      </trkpt>
      <trkpt lat="45.17677" lon="3.4385">
        <ele>690.792</ele>
        <time>2020-08-16T13:57:07Z</time>
      </trkpt>
      <trkpt lat="45.17677" lon="3.4385">
        <ele>690.792</ele>
        <time>2020-08-16T13:57:07Z</time>
      </trkpt>
      <trkpt lat="45.17677" lon="3.4385">
        <ele>691.722</ele>
        <time>2020-08-16T13:57:08Z</time>
      </trkpt>
      <trkpt lat="45.17678" lon="3.43852">
        <ele>691.202</ele>
        <time>2020-08-16T13:57:10Z</time>
      </trkpt>
      <trkpt lat="45.17715" lon="3.43919">
        <ele>693.522</ele>
        <time>2020-08-16T13:58:03Z</time>
      </trkpt>
      <trkpt lat="45.17721" lon="3.43933">
        <ele>692.507</ele>
        <time>2020-08-16T13:58:13Z</time>
      </trkpt>
      <trkpt lat="45.17724" lon="3.43951">
        <ele>692.065</ele>
        <time>2020-08-16T13:58:25Z</time>
      </trkpt>
      <trkpt lat="45.17714" lon="3.43991">
        <ele>690.045</ele>
        <time>2020-08-16T13:58:54Z</time>
      </trkpt>
      <trkpt lat="45.1769" lon="3.44057">
        <ele>688.173</ele>
        <time>2020-08-16T13:59:40Z</time>
      </trkpt>
      <trkpt lat="45.17691" lon="3.44065">
        <ele>687.26</ele>
        <time>2020-08-16T13:59:44Z</time>
      </trkpt>
      <trkpt lat="45.17696" lon="3.4408">
        <ele>685.054</ele>
        <time>2020-08-16T13:59:50Z</time>
      </trkpt>
      <trkpt lat="45.17698" lon="3.44083">
        <ele>684.994</ele>
        <time>2020-08-16T13:59:52Z</time>
      </trkpt>
      <trkpt lat="45.177" lon="3.44089">
        <ele>684.308</ele>
        <time>2020-08-16T13:59:55Z</time>
      </trkpt>
      <trkpt lat="45.17702" lon="3.44093">
        <ele>684.475</ele>
        <time>2020-08-16T13:59:57Z</time>
      </trkpt>
      <trkpt lat="45.1771" lon="3.44111">
        <ele>684.113</ele>
        <time>2020-08-16T14:00:09Z</time>
      </trkpt>
      <trkpt lat="45.17713" lon="3.44114">
        <ele>683.554</ele>
        <time>2020-08-16T14:00:12Z</time>
      </trkpt>
      <trkpt lat="45.17718" lon="3.44128">
        <ele>682.935</ele>
        <time>2020-08-16T14:00:22Z</time>
      </trkpt>
      <trkpt lat="45.17721" lon="3.44137">
        <ele>682.997</ele>
        <time>2020-08-16T14:00:27Z</time>
      </trkpt>
      <trkpt lat="45.17725" lon="3.44142">
        <ele>683.532</ele>
        <time>2020-08-16T14:00:31Z</time>
      </trkpt>
      <trkpt lat="45.17728" lon="3.44144">
        <ele>683.917</ele>
        <time>2020-08-16T14:00:33Z</time>
      </trkpt>
      <trkpt lat="45.17747" lon="3.44152">
        <ele>681.867</ele>
        <time>2020-08-16T14:00:51Z</time>
      </trkpt>
      <trkpt lat="45.17758" lon="3.44156">
        <ele>683.069</ele>
        <time>2020-08-16T14:01:01Z</time>
      </trkpt>
      <trkpt lat="45.17764" lon="3.44159">
        <ele>683.306</ele>
        <time>2020-08-16T14:01:06Z</time>
      </trkpt>
      <trkpt lat="45.1779" lon="3.4417">
        <ele>684.637</ele>
        <time>2020-08-16T14:01:30Z</time>
      </trkpt>
      <trkpt lat="45.17793" lon="3.44173">
        <ele>684.333</ele>
        <time>2020-08-16T14:01:33Z</time>
      </trkpt>
      <trkpt lat="45.17818" lon="3.44193">
        <ele>686.603</ele>
        <time>2020-08-16T14:01:56Z</time>
      </trkpt>
      <trkpt lat="45.17825" lon="3.44198">
        <ele>687.365</ele>
        <time>2020-08-16T14:02:01Z</time>
      </trkpt>
      <trkpt lat="45.17857" lon="3.4423">
        <ele>688.416</ele>
        <time>2020-08-16T14:02:31Z</time>
      </trkpt>
      <trkpt lat="45.17876" lon="3.44247">
        <ele>686.025</ele>
        <time>2020-08-16T14:02:52Z</time>
      </trkpt>
      <trkpt lat="45.17883" lon="3.44251">
        <ele>683.894</ele>
        <time>2020-08-16T14:02:59Z</time>
      </trkpt>
      <trkpt lat="45.17911" lon="3.44271">
        <ele>682.332</ele>
        <time>2020-08-16T14:03:25Z</time>
      </trkpt>
      <trkpt lat="45.17919" lon="3.44277">
        <ele>683.003</ele>
        <time>2020-08-16T14:03:31Z</time>
      </trkpt>
      <trkpt lat="45.17935" lon="3.44293">
        <ele>681.528</ele>
        <time>2020-08-16T14:03:49Z</time>
      </trkpt>
      <trkpt lat="45.1794" lon="3.44298">
        <ele>683.525</ele>
        <time>2020-08-16T14:03:54Z</time>
      </trkpt>
      <trkpt lat="45.17942" lon="3.44298">
        <ele>683.264</ele>
        <time>2020-08-16T14:03:57Z</time>
      </trkpt>
      <trkpt lat="45.17959" lon="3.44313">
        <ele>684.134</ele>
        <time>2020-08-16T14:04:13Z</time>
      </trkpt>
      <trkpt lat="45.17977" lon="3.44329">
        <ele>685.16</ele>
        <time>2020-08-16T14:04:30Z</time>
      </trkpt>
      <trkpt lat="45.17979" lon="3.44332">
        <ele>685.225</ele>
        <time>2020-08-16T14:04:33Z</time>
      </trkpt>
      <trkpt lat="45.1798" lon="3.44333">
        <ele>685.069</ele>
        <time>2020-08-16T14:04:34Z</time>
      </trkpt>
      <trkpt lat="45.17983" lon="3.44336">
        <ele>683.858</ele>
        <time>2020-08-16T14:04:37Z</time>
      </trkpt>
      <trkpt lat="45.17985" lon="3.4434">
        <ele>683.432</ele>
        <time>2020-08-16T14:04:41Z</time>
      </trkpt>
      <trkpt lat="45.17986" lon="3.44342">
        <ele>683.779</ele>
        <time>2020-08-16T14:04:43Z</time>
      </trkpt>
      <trkpt lat="45.17988" lon="3.44343">
        <ele>684.051</ele>
        <time>2020-08-16T14:04:45Z</time>
      </trkpt>
      <trkpt lat="45.17989" lon="3.44344">
        <ele>684.059</ele>
        <time>2020-08-16T14:04:46Z</time>
      </trkpt>
      <trkpt lat="45.18001" lon="3.44354">
        <ele>683.249</ele>
        <time>2020-08-16T14:04:55Z</time>
      </trkpt>
      <trkpt lat="45.18007" lon="3.44358">
        <ele>682.877</ele>
        <time>2020-08-16T14:05:00Z</time>
      </trkpt>
      <trkpt lat="45.18017" lon="3.44371">
        <ele>685.106</ele>
        <time>2020-08-16T14:05:10Z</time>
      </trkpt>
      <trkpt lat="45.18029" lon="3.44389">
        <ele>685.166</ele>
        <time>2020-08-16T14:05:21Z</time>
      </trkpt>
      <trkpt lat="45.18038" lon="3.44403">
        <ele>686.653</ele>
        <time>2020-08-16T14:05:31Z</time>
      </trkpt>
      <trkpt lat="45.1804" lon="3.44406">
        <ele>686.25</ele>
        <time>2020-08-16T14:05:34Z</time>
      </trkpt>
      <trkpt lat="45.18047" lon="3.44417">
        <ele>685.723</ele>
        <time>2020-08-16T14:05:43Z</time>
      </trkpt>
      <trkpt lat="45.18049" lon="3.44418">
        <ele>685.915</ele>
        <time>2020-08-16T14:05:46Z</time>
      </trkpt>
      <trkpt lat="45.18051" lon="3.44422">
        <ele>685.299</ele>
        <time>2020-08-16T14:05:50Z</time>
      </trkpt>
      <trkpt lat="45.18052" lon="3.44423">
        <ele>685.214</ele>
        <time>2020-08-16T14:05:51Z</time>
      </trkpt>
      <trkpt lat="45.18063" lon="3.44438">
        <ele>683.216</ele>
        <time>2020-08-16T14:06:01Z</time>
      </trkpt>
      <trkpt lat="45.18065" lon="3.44441">
        <ele>683.408</ele>
        <time>2020-08-16T14:06:04Z</time>
      </trkpt>
      <trkpt lat="45.18067" lon="3.44443">
        <ele>683.369</ele>
        <time>2020-08-16T14:06:06Z</time>
      </trkpt>
      <trkpt lat="45.18071" lon="3.44445">
        <ele>683.337</ele>
        <time>2020-08-16T14:06:09Z</time>
      </trkpt>
      <trkpt lat="45.18072" lon="3.44445">
        <ele>683.115</ele>
        <time>2020-08-16T14:06:10Z</time>
      </trkpt>
      <trkpt lat="45.18073" lon="3.44446">
        <ele>682.858</ele>
        <time>2020-08-16T14:06:12Z</time>
      </trkpt>
      <trkpt lat="45.1808" lon="3.4445">
        <ele>682.867</ele>
        <time>2020-08-16T14:06:16Z</time>
      </trkpt>
      <trkpt lat="45.18094" lon="3.44456">
        <ele>682.57</ele>
        <time>2020-08-16T14:06:25Z</time>
      </trkpt>
      <trkpt lat="45.18095" lon="3.44456">
        <ele>682.394</ele>
        <time>2020-08-16T14:06:26Z</time>
      </trkpt>
      <trkpt lat="45.18097" lon="3.44457">
        <ele>682.278</ele>
        <time>2020-08-16T14:06:29Z</time>
      </trkpt>
      <trkpt lat="45.18097" lon="3.44457">
        <ele>682.591</ele>
        <time>2020-08-16T14:06:30Z</time>
      </trkpt>
      <trkpt lat="45.18098" lon="3.44457">
        <ele>682.167</ele>
        <time>2020-08-16T14:06:34Z</time>
      </trkpt>
      <trkpt lat="45.181" lon="3.44458">
        <ele>681.486</ele>
        <time>2020-08-16T14:06:36Z</time>
      </trkpt>
      <trkpt lat="45.18109" lon="3.44459">
        <ele>679.227</ele>
        <time>2020-08-16T14:06:44Z</time>
      </trkpt>
      <trkpt lat="45.18114" lon="3.44459">
        <ele>679.434</ele>
        <time>2020-08-16T14:06:49Z</time>
      </trkpt>
      <trkpt lat="45.18121" lon="3.44461">
        <ele>679.713</ele>
        <time>2020-08-16T14:06:55Z</time>
      </trkpt>
      <trkpt lat="45.18127" lon="3.44462">
        <ele>679.919</ele>
        <time>2020-08-16T14:07:01Z</time>
      </trkpt>
      <trkpt lat="45.18128" lon="3.44462">
        <ele>679.494</ele>
        <time>2020-08-16T14:07:02Z</time>
      </trkpt>
      <trkpt lat="45.18132" lon="3.4446">
        <ele>679.044</ele>
        <time>2020-08-16T14:07:07Z</time>
      </trkpt>
      <trkpt lat="45.18132" lon="3.4446">
        <ele>679.044</ele>
        <time>2020-08-16T14:07:07Z</time>
      </trkpt>
      <trkpt lat="45.18132" lon="3.4446">
        <ele>679.315</ele>
        <time>2020-08-16T14:07:08Z</time>
      </trkpt>
      <trkpt lat="45.18135" lon="3.4446">
        <ele>679.527</ele>
        <time>2020-08-16T14:07:10Z</time>
      </trkpt>
      <trkpt lat="45.18137" lon="3.44461">
        <ele>678.046</ele>
        <time>2020-08-16T14:07:12Z</time>
      </trkpt>
      <trkpt lat="45.18144" lon="3.44467">
        <ele>677.414</ele>
        <time>2020-08-16T14:07:20Z</time>
      </trkpt>
      <trkpt lat="45.18144" lon="3.44467">
        <ele>677.549</ele>
        <time>2020-08-16T14:07:22Z</time>
      </trkpt>
      <trkpt lat="45.18147" lon="3.4447">
        <ele>678.016</ele>
        <time>2020-08-16T14:07:25Z</time>
      </trkpt>
      <trkpt lat="45.18152" lon="3.44474">
        <ele>678.26</ele>
        <time>2020-08-16T14:07:29Z</time>
      </trkpt>
      <trkpt lat="45.18169" lon="3.44479">
        <ele>680.581</ele>
        <time>2020-08-16T14:07:42Z</time>
      </trkpt>
      <trkpt lat="45.1819" lon="3.44489">
        <ele>682.693</ele>
        <time>2020-08-16T14:08:00Z</time>
      </trkpt>
      <trkpt lat="45.18197" lon="3.44492">
        <ele>684.228</ele>
        <time>2020-08-16T14:08:05Z</time>
      </trkpt>
      <trkpt lat="45.18201" lon="3.44495">
        <ele>685.46</ele>
        <time>2020-08-16T14:08:08Z</time>
      </trkpt>
      <trkpt lat="45.18204" lon="3.445">
        <ele>686.308</ele>
        <time>2020-08-16T14:08:11Z</time>
      </trkpt>
      <trkpt lat="45.18207" lon="3.44505">
        <ele>686.49</ele>
        <time>2020-08-16T14:08:14Z</time>
      </trkpt>
      <trkpt lat="45.18211" lon="3.44519">
        <ele>686.865</ele>
        <time>2020-08-16T14:08:24Z</time>
      </trkpt>
      <trkpt lat="45.1821" lon="3.44539">
        <ele>686.71</ele>
        <time>2020-08-16T14:08:38Z</time>
      </trkpt>
      <trkpt lat="45.18209" lon="3.4454">
        <ele>687.106</ele>
        <time>2020-08-16T14:08:40Z</time>
      </trkpt>
      <trkpt lat="45.18209" lon="3.44541">
        <ele>687.122</ele>
        <time>2020-08-16T14:08:41Z</time>
      </trkpt>
      <trkpt lat="45.18209" lon="3.44543">
        <ele>687.248</ele>
        <time>2020-08-16T14:08:43Z</time>
      </trkpt>
      <trkpt lat="45.18208" lon="3.44546">
        <ele>687.131</ele>
        <time>2020-08-16T14:08:45Z</time>
      </trkpt>
      <trkpt lat="45.18207" lon="3.44549">
        <ele>686.963</ele>
        <time>2020-08-16T14:08:49Z</time>
      </trkpt>
      <trkpt lat="45.18207" lon="3.44552">
        <ele>687.016</ele>
        <time>2020-08-16T14:08:51Z</time>
      </trkpt>
      <trkpt lat="45.18207" lon="3.44557">
        <ele>686.081</ele>
        <time>2020-08-16T14:08:54Z</time>
      </trkpt>
      <trkpt lat="45.18204" lon="3.4457">
        <ele>685.075</ele>
        <time>2020-08-16T14:09:01Z</time>
      </trkpt>
      <trkpt lat="45.18203" lon="3.44576">
        <ele>685.689</ele>
        <time>2020-08-16T14:09:05Z</time>
      </trkpt>
      <trkpt lat="45.18203" lon="3.44578">
        <ele>685.719</ele>
        <time>2020-08-16T14:09:08Z</time>
      </trkpt>
      <trkpt lat="45.18203" lon="3.4458">
        <ele>685.715</ele>
        <time>2020-08-16T14:09:10Z</time>
      </trkpt>
      <trkpt lat="45.18203" lon="3.44581">
        <ele>685.161</ele>
        <time>2020-08-16T14:09:13Z</time>
      </trkpt>
      <trkpt lat="45.18203" lon="3.44581">
        <ele>685.161</ele>
        <time>2020-08-16T14:09:13Z</time>
      </trkpt>
      <trkpt lat="45.18204" lon="3.44582">
        <ele>684.999</ele>
        <time>2020-08-16T14:09:14Z</time>
      </trkpt>
      <trkpt lat="45.18205" lon="3.44583">
        <ele>684.823</ele>
        <time>2020-08-16T14:09:15Z</time>
      </trkpt>
      <trkpt lat="45.18205" lon="3.44584">
        <ele>684.932</ele>
        <time>2020-08-16T14:09:16Z</time>
      </trkpt>
      <trkpt lat="45.18205" lon="3.44585">
        <ele>685.233</ele>
        <time>2020-08-16T14:09:17Z</time>
      </trkpt>
      <trkpt lat="45.18206" lon="3.44589">
        <ele>684.649</ele>
        <time>2020-08-16T14:09:19Z</time>
      </trkpt>
      <trkpt lat="45.18206" lon="3.44589">
        <ele>684.525</ele>
        <time>2020-08-16T14:09:20Z</time>
      </trkpt>
      <trkpt lat="45.18206" lon="3.44589">
        <ele>684.525</ele>
        <time>2020-08-16T14:09:20Z</time>
      </trkpt>
      <trkpt lat="45.18207" lon="3.44592">
        <ele>684.37</ele>
        <time>2020-08-16T14:09:21Z</time>
      </trkpt>
      <trkpt lat="45.18207" lon="3.44594">
        <ele>684.335</ele>
        <time>2020-08-16T14:09:22Z</time>
      </trkpt>
      <trkpt lat="45.18208" lon="3.44599">
        <ele>683.674</ele>
        <time>2020-08-16T14:09:24Z</time>
      </trkpt>
      <trkpt lat="45.18209" lon="3.44604">
        <ele>683.908</ele>
        <time>2020-08-16T14:09:27Z</time>
      </trkpt>
      <trkpt lat="45.18209" lon="3.44604">
        <ele>683.908</ele>
        <time>2020-08-16T14:09:27Z</time>
      </trkpt>
      <trkpt lat="45.18209" lon="3.44605">
        <ele>683.955</ele>
        <time>2020-08-16T14:09:28Z</time>
      </trkpt>
      <trkpt lat="45.18211" lon="3.44608">
        <ele>683.141</ele>
        <time>2020-08-16T14:09:31Z</time>
      </trkpt>
      <trkpt lat="45.18216" lon="3.44618">
        <ele>682.416</ele>
        <time>2020-08-16T14:09:36Z</time>
      </trkpt>
      <trkpt lat="45.18224" lon="3.44628">
        <ele>680.507</ele>
        <time>2020-08-16T14:09:44Z</time>
      </trkpt>
      <trkpt lat="45.18228" lon="3.44629">
        <ele>680.145</ele>
        <time>2020-08-16T14:09:47Z</time>
      </trkpt>
      <trkpt lat="45.18229" lon="3.4463">
        <ele>680.125</ele>
        <time>2020-08-16T14:09:49Z</time>
      </trkpt>
      <trkpt lat="45.18229" lon="3.4463">
        <ele>680.125</ele>
        <time>2020-08-16T14:09:49Z</time>
      </trkpt>
      <trkpt lat="45.18229" lon="3.4463">
        <ele>679.677</ele>
        <time>2020-08-16T14:09:50Z</time>
      </trkpt>
      <trkpt lat="45.1823" lon="3.4463">
        <ele>679.031</ele>
        <time>2020-08-16T14:09:51Z</time>
      </trkpt>
      <trkpt lat="45.18231" lon="3.44629">
        <ele>679.241</ele>
        <time>2020-08-16T14:09:52Z</time>
      </trkpt>
      <trkpt lat="45.18236" lon="3.44633">
        <ele>679.729</ele>
        <time>2020-08-16T14:09:57Z</time>
      </trkpt>
      <trkpt lat="45.18245" lon="3.44636">
        <ele>678.492</ele>
        <time>2020-08-16T14:10:05Z</time>
      </trkpt>
      <trkpt lat="45.18248" lon="3.44636">
        <ele>678.511</ele>
        <time>2020-08-16T14:10:08Z</time>
      </trkpt>
      <trkpt lat="45.18249" lon="3.44636">
        <ele>678.36</ele>
        <time>2020-08-16T14:10:09Z</time>
      </trkpt>
      <trkpt lat="45.18253" lon="3.44636">
        <ele>678.561</ele>
        <time>2020-08-16T14:10:14Z</time>
      </trkpt>
      <trkpt lat="45.18258" lon="3.44636">
        <ele>677.656</ele>
        <time>2020-08-16T14:10:18Z</time>
      </trkpt>
      <trkpt lat="45.18268" lon="3.44637">
        <ele>675.334</ele>
        <time>2020-08-16T14:10:24Z</time>
      </trkpt>
      <trkpt lat="45.18269" lon="3.44637">
        <ele>675.329</ele>
        <time>2020-08-16T14:10:25Z</time>
      </trkpt>
      <trkpt lat="45.1827" lon="3.44638">
        <ele>675.215</ele>
        <time>2020-08-16T14:10:26Z</time>
      </trkpt>
      <trkpt lat="45.18273" lon="3.44638">
        <ele>675.628</ele>
        <time>2020-08-16T14:10:28Z</time>
      </trkpt>
      <trkpt lat="45.18275" lon="3.44638">
        <ele>675.517</ele>
        <time>2020-08-16T14:10:30Z</time>
      </trkpt>
      <trkpt lat="45.18277" lon="3.44639">
        <ele>675.342</ele>
        <time>2020-08-16T14:10:31Z</time>
      </trkpt>
      <trkpt lat="45.18281" lon="3.44639">
        <ele>674.945</ele>
        <time>2020-08-16T14:10:34Z</time>
      </trkpt>
      <trkpt lat="45.18282" lon="3.44639">
        <ele>674.935</ele>
        <time>2020-08-16T14:10:36Z</time>
      </trkpt>
      <trkpt lat="45.18282" lon="3.44639">
        <ele>674.935</ele>
        <time>2020-08-16T14:10:36Z</time>
      </trkpt>
      <trkpt lat="45.18283" lon="3.44639">
        <ele>674.786</ele>
        <time>2020-08-16T14:10:37Z</time>
      </trkpt>
      <trkpt lat="45.18284" lon="3.44639">
        <ele>674.764</ele>
        <time>2020-08-16T14:10:38Z</time>
      </trkpt>
      <trkpt lat="45.18285" lon="3.44639">
        <ele>674.804</ele>
        <time>2020-08-16T14:10:39Z</time>
      </trkpt>
      <trkpt lat="45.18291" lon="3.4464">
        <ele>674.463</ele>
        <time>2020-08-16T14:10:45Z</time>
      </trkpt>
      <trkpt lat="45.18291" lon="3.4464">
        <ele>674.463</ele>
        <time>2020-08-16T14:10:45Z</time>
      </trkpt>
      <trkpt lat="45.18292" lon="3.4464">
        <ele>673.767</ele>
        <time>2020-08-16T14:10:46Z</time>
      </trkpt>
      <trkpt lat="45.18293" lon="3.4464">
        <ele>673.472</ele>
        <time>2020-08-16T14:10:47Z</time>
      </trkpt>
      <trkpt lat="45.18299" lon="3.44642">
        <ele>673.092</ele>
        <time>2020-08-16T14:10:51Z</time>
      </trkpt>
      <trkpt lat="45.18308" lon="3.44645">
        <ele>672.831</ele>
        <time>2020-08-16T14:10:57Z</time>
      </trkpt>
      <trkpt lat="45.18309" lon="3.44645">
        <ele>671.798</ele>
        <time>2020-08-16T14:10:58Z</time>
      </trkpt>
      <trkpt lat="45.18313" lon="3.44646">
        <ele>672.187</ele>
        <time>2020-08-16T14:11:02Z</time>
      </trkpt>
      <trkpt lat="45.18314" lon="3.44646">
        <ele>672.058</ele>
        <time>2020-08-16T14:11:03Z</time>
      </trkpt>
      <trkpt lat="45.18324" lon="3.44648">
        <ele>671.37</ele>
        <time>2020-08-16T14:11:10Z</time>
      </trkpt>
      <trkpt lat="45.18338" lon="3.44647">
        <ele>671.184</ele>
        <time>2020-08-16T14:11:19Z</time>
      </trkpt>
      <trkpt lat="45.18342" lon="3.44646">
        <ele>671.669</ele>
        <time>2020-08-16T14:11:23Z</time>
      </trkpt>
      <trkpt lat="45.18346" lon="3.44646">
        <ele>671.152</ele>
        <time>2020-08-16T14:11:26Z</time>
      </trkpt>
      <trkpt lat="45.18348" lon="3.44646">
        <ele>670.871</ele>
        <time>2020-08-16T14:11:29Z</time>
      </trkpt>
      <trkpt lat="45.18349" lon="3.44646">
        <ele>671.529</ele>
        <time>2020-08-16T14:11:30Z</time>
      </trkpt>
      <trkpt lat="45.18352" lon="3.44646">
        <ele>671.474</ele>
        <time>2020-08-16T14:11:33Z</time>
      </trkpt>
      <trkpt lat="45.18354" lon="3.44645">
        <ele>669.867</ele>
        <time>2020-08-16T14:11:38Z</time>
      </trkpt>
      <trkpt lat="45.18356" lon="3.44644">
        <ele>668.995</ele>
        <time>2020-08-16T14:11:40Z</time>
      </trkpt>
      <trkpt lat="45.18359" lon="3.44645">
        <ele>669.403</ele>
        <time>2020-08-16T14:11:42Z</time>
      </trkpt>
      <trkpt lat="45.18366" lon="3.44645">
        <ele>668.543</ele>
        <time>2020-08-16T14:11:47Z</time>
      </trkpt>
      <trkpt lat="45.1837" lon="3.44646">
        <ele>668.215</ele>
        <time>2020-08-16T14:11:49Z</time>
      </trkpt>
      <trkpt lat="45.18386" lon="3.44653">
        <ele>667.223</ele>
        <time>2020-08-16T14:11:57Z</time>
      </trkpt>
      <trkpt lat="45.18386" lon="3.44652">
        <ele>667.272</ele>
        <time>2020-08-16T14:11:59Z</time>
      </trkpt>
      <trkpt lat="45.18386" lon="3.44652">
        <ele>667.272</ele>
        <time>2020-08-16T14:11:59Z</time>
      </trkpt>
      <trkpt lat="45.18386" lon="3.44652">
        <ele>666.884</ele>
        <time>2020-08-16T14:12:00Z</time>
      </trkpt>
      <trkpt lat="45.18388" lon="3.44652">
        <ele>666.835</ele>
        <time>2020-08-16T14:12:03Z</time>
      </trkpt>
      <trkpt lat="45.1839" lon="3.44652">
        <ele>666.743</ele>
        <time>2020-08-16T14:12:04Z</time>
      </trkpt>
      <trkpt lat="45.18391" lon="3.44652">
        <ele>666.131</ele>
        <time>2020-08-16T14:12:06Z</time>
      </trkpt>
      <trkpt lat="45.18395" lon="3.44653">
        <ele>666.499</ele>
        <time>2020-08-16T14:12:11Z</time>
      </trkpt>
      <trkpt lat="45.184" lon="3.44655">
        <ele>666.208</ele>
        <time>2020-08-16T14:12:14Z</time>
      </trkpt>
      <trkpt lat="45.18403" lon="3.44655">
        <ele>665.535</ele>
        <time>2020-08-16T14:12:17Z</time>
      </trkpt>
      <trkpt lat="45.18406" lon="3.44655">
        <ele>665.764</ele>
        <time>2020-08-16T14:12:19Z</time>
      </trkpt>
      <trkpt lat="45.1841" lon="3.44655">
        <ele>665.768</ele>
        <time>2020-08-16T14:12:22Z</time>
      </trkpt>
      <trkpt lat="45.18412" lon="3.44654">
        <ele>665.729</ele>
        <time>2020-08-16T14:12:24Z</time>
      </trkpt>
      <trkpt lat="45.18413" lon="3.44654">
        <ele>665.641</ele>
        <time>2020-08-16T14:12:25Z</time>
      </trkpt>
      <trkpt lat="45.18416" lon="3.44656">
        <ele>666.155</ele>
        <time>2020-08-16T14:12:27Z</time>
      </trkpt>
      <trkpt lat="45.18417" lon="3.44657">
        <ele>666.154</ele>
        <time>2020-08-16T14:12:29Z</time>
      </trkpt>
      <trkpt lat="45.1842" lon="3.44655">
        <ele>665.907</ele>
        <time>2020-08-16T14:12:33Z</time>
      </trkpt>
      <trkpt lat="45.18423" lon="3.44655">
        <ele>666.405</ele>
        <time>2020-08-16T14:12:36Z</time>
      </trkpt>
      <trkpt lat="45.18424" lon="3.44655">
        <ele>666.506</ele>
        <time>2020-08-16T14:12:39Z</time>
      </trkpt>
      <trkpt lat="45.18425" lon="3.44655">
        <ele>665.874</ele>
        <time>2020-08-16T14:12:41Z</time>
      </trkpt>
      <trkpt lat="45.18425" lon="3.44655">
        <ele>666.016</ele>
        <time>2020-08-16T14:12:42Z</time>
      </trkpt>
      <trkpt lat="45.18426" lon="3.44655">
        <ele>665.797</ele>
        <time>2020-08-16T14:12:43Z</time>
      </trkpt>
      <trkpt lat="45.18426" lon="3.44655">
        <ele>665.797</ele>
        <time>2020-08-16T14:12:43Z</time>
      </trkpt>
      <trkpt lat="45.18427" lon="3.44656">
        <ele>665.641</ele>
        <time>2020-08-16T14:12:44Z</time>
      </trkpt>
      <trkpt lat="45.18433" lon="3.44659">
        <ele>665.064</ele>
        <time>2020-08-16T14:12:48Z</time>
      </trkpt>
      <trkpt lat="45.18435" lon="3.4466">
        <ele>665.894</ele>
        <time>2020-08-16T14:12:51Z</time>
      </trkpt>
      <trkpt lat="45.18436" lon="3.4466">
        <ele>664.636</ele>
        <time>2020-08-16T14:12:53Z</time>
      </trkpt>
      <trkpt lat="45.18438" lon="3.44661">
        <ele>664.759</ele>
        <time>2020-08-16T14:12:54Z</time>
      </trkpt>
      <trkpt lat="45.18445" lon="3.44664">
        <ele>664.958</ele>
        <time>2020-08-16T14:12:57Z</time>
      </trkpt>
      <trkpt lat="45.18455" lon="3.4467">
        <ele>662.782</ele>
        <time>2020-08-16T14:13:02Z</time>
      </trkpt>
      <trkpt lat="45.18457" lon="3.44673">
        <ele>660.623</ele>
        <time>2020-08-16T14:13:05Z</time>
      </trkpt>
      <trkpt lat="45.18464" lon="3.44676">
        <ele>661.335</ele>
        <time>2020-08-16T14:13:11Z</time>
      </trkpt>
      <trkpt lat="45.18466" lon="3.44676">
        <ele>662.048</ele>
        <time>2020-08-16T14:13:13Z</time>
      </trkpt>
      <trkpt lat="45.18469" lon="3.44679">
        <ele>662.37</ele>
        <time>2020-08-16T14:13:15Z</time>
      </trkpt>
      <trkpt lat="45.18473" lon="3.44684">
        <ele>660.931</ele>
        <time>2020-08-16T14:13:19Z</time>
      </trkpt>
      <trkpt lat="45.18474" lon="3.44686">
        <ele>660.923</ele>
        <time>2020-08-16T14:13:20Z</time>
      </trkpt>
      <trkpt lat="45.1848" lon="3.44693">
        <ele>660.349</ele>
        <time>2020-08-16T14:13:27Z</time>
      </trkpt>
      <trkpt lat="45.18487" lon="3.44701">
        <ele>658.246</ele>
        <time>2020-08-16T14:13:38Z</time>
      </trkpt>
      <trkpt lat="45.18489" lon="3.44705">
        <ele>658.19</ele>
        <time>2020-08-16T14:13:42Z</time>
      </trkpt>
      <trkpt lat="45.18492" lon="3.44715">
        <ele>657.096</ele>
        <time>2020-08-16T14:13:47Z</time>
      </trkpt>
      <trkpt lat="45.18493" lon="3.44726">
        <ele>658.432</ele>
        <time>2020-08-16T14:13:53Z</time>
      </trkpt>
      <trkpt lat="45.18494" lon="3.44728">
        <ele>658.196</ele>
        <time>2020-08-16T14:13:54Z</time>
      </trkpt>
      <trkpt lat="45.18494" lon="3.44732">
        <ele>658.447</ele>
        <time>2020-08-16T14:13:57Z</time>
      </trkpt>
      <trkpt lat="45.18496" lon="3.44737">
        <ele>658.862</ele>
        <time>2020-08-16T14:14:01Z</time>
      </trkpt>
      <trkpt lat="45.185" lon="3.44742">
        <ele>658.874</ele>
        <time>2020-08-16T14:14:04Z</time>
      </trkpt>
      <trkpt lat="45.18503" lon="3.44748">
        <ele>659.213</ele>
        <time>2020-08-16T14:14:07Z</time>
      </trkpt>
      <trkpt lat="45.18503" lon="3.44749">
        <ele>659.102</ele>
        <time>2020-08-16T14:14:08Z</time>
      </trkpt>
      <trkpt lat="45.18505" lon="3.44754">
        <ele>658.65</ele>
        <time>2020-08-16T14:14:11Z</time>
      </trkpt>
      <trkpt lat="45.18506" lon="3.44756">
        <ele>658.56</ele>
        <time>2020-08-16T14:14:13Z</time>
      </trkpt>
      <trkpt lat="45.18506" lon="3.44758">
        <ele>658.172</ele>
        <time>2020-08-16T14:14:14Z</time>
      </trkpt>
      <trkpt lat="45.18511" lon="3.44763">
        <ele>657.573</ele>
        <time>2020-08-16T14:14:20Z</time>
      </trkpt>
      <trkpt lat="45.18511" lon="3.44764">
        <ele>657.468</ele>
        <time>2020-08-16T14:14:21Z</time>
      </trkpt>
      <trkpt lat="45.18512" lon="3.44764">
        <ele>657.737</ele>
        <time>2020-08-16T14:14:22Z</time>
      </trkpt>
      <trkpt lat="45.18512" lon="3.44765">
        <ele>657.565</ele>
        <time>2020-08-16T14:14:23Z</time>
      </trkpt>
      <trkpt lat="45.18516" lon="3.44769">
        <ele>657.445</ele>
        <time>2020-08-16T14:14:27Z</time>
      </trkpt>
      <trkpt lat="45.18517" lon="3.44773">
        <ele>656.657</ele>
        <time>2020-08-16T14:14:30Z</time>
      </trkpt>
      <trkpt lat="45.18525" lon="3.44795">
        <ele>656.532</ele>
        <time>2020-08-16T14:14:43Z</time>
      </trkpt>
      <trkpt lat="45.18528" lon="3.44806">
        <ele>656.328</ele>
        <time>2020-08-16T14:14:50Z</time>
      </trkpt>
      <trkpt lat="45.1853" lon="3.44813">
        <ele>656.223</ele>
        <time>2020-08-16T14:14:54Z</time>
      </trkpt>
      <trkpt lat="45.18533" lon="3.44835">
        <ele>658.765</ele>
        <time>2020-08-16T14:15:05Z</time>
      </trkpt>
      <trkpt lat="45.18537" lon="3.4485">
        <ele>660.812</ele>
        <time>2020-08-16T14:15:13Z</time>
      </trkpt>
      <trkpt lat="45.18537" lon="3.44854">
        <ele>660.809</ele>
        <time>2020-08-16T14:15:15Z</time>
      </trkpt>
      <trkpt lat="45.18537" lon="3.44859">
        <ele>661.099</ele>
        <time>2020-08-16T14:15:18Z</time>
      </trkpt>
      <trkpt lat="45.18539" lon="3.44872">
        <ele>662.487</ele>
        <time>2020-08-16T14:15:25Z</time>
      </trkpt>
      <trkpt lat="45.18539" lon="3.44873">
        <ele>661.834</ele>
        <time>2020-08-16T14:15:27Z</time>
      </trkpt>
      <trkpt lat="45.1854" lon="3.44874">
        <ele>661.948</ele>
        <time>2020-08-16T14:15:28Z</time>
      </trkpt>
      <trkpt lat="45.18541" lon="3.44877">
        <ele>662.07</ele>
        <time>2020-08-16T14:15:31Z</time>
      </trkpt>
      <trkpt lat="45.18543" lon="3.44881">
        <ele>662.305</ele>
        <time>2020-08-16T14:15:34Z</time>
      </trkpt>
      <trkpt lat="45.18545" lon="3.44886">
        <ele>662.311</ele>
        <time>2020-08-16T14:15:37Z</time>
      </trkpt>
      <trkpt lat="45.18548" lon="3.44895">
        <ele>662.004</ele>
        <time>2020-08-16T14:15:42Z</time>
      </trkpt>
      <trkpt lat="45.18556" lon="3.44905">
        <ele>661.668</ele>
        <time>2020-08-16T14:15:49Z</time>
      </trkpt>
      <trkpt lat="45.18564" lon="3.44913">
        <ele>659.546</ele>
        <time>2020-08-16T14:16:00Z</time>
      </trkpt>
      <trkpt lat="45.18565" lon="3.44917">
        <ele>659.353</ele>
        <time>2020-08-16T14:16:03Z</time>
      </trkpt>
      <trkpt lat="45.18566" lon="3.44921">
        <ele>658.512</ele>
        <time>2020-08-16T14:16:06Z</time>
      </trkpt>
      <trkpt lat="45.18573" lon="3.44926">
        <ele>657.982</ele>
        <time>2020-08-16T14:16:11Z</time>
      </trkpt>
      <trkpt lat="45.18577" lon="3.44928">
        <ele>657.227</ele>
        <time>2020-08-16T14:16:14Z</time>
      </trkpt>
      <trkpt lat="45.18577" lon="3.44928">
        <ele>656.884</ele>
        <time>2020-08-16T14:16:15Z</time>
      </trkpt>
      <trkpt lat="45.18578" lon="3.44929">
        <ele>657.465</ele>
        <time>2020-08-16T14:16:16Z</time>
      </trkpt>
      <trkpt lat="45.18583" lon="3.4493">
        <ele>657.677</ele>
        <time>2020-08-16T14:16:19Z</time>
      </trkpt>
      <trkpt lat="45.18586" lon="3.44931">
        <ele>657.245</ele>
        <time>2020-08-16T14:16:22Z</time>
      </trkpt>
      <trkpt lat="45.1859" lon="3.44932">
        <ele>656.988</ele>
        <time>2020-08-16T14:16:25Z</time>
      </trkpt>
      <trkpt lat="45.18592" lon="3.44932">
        <ele>657.037</ele>
        <time>2020-08-16T14:16:26Z</time>
      </trkpt>
      <trkpt lat="45.18607" lon="3.44929">
        <ele>654.672</ele>
        <time>2020-08-16T14:16:37Z</time>
      </trkpt>
      <trkpt lat="45.18618" lon="3.44931">
        <ele>652.643</ele>
        <time>2020-08-16T14:16:47Z</time>
      </trkpt>
      <trkpt lat="45.18646" lon="3.44939">
        <ele>653.704</ele>
        <time>2020-08-16T14:17:13Z</time>
      </trkpt>
      <trkpt lat="45.18646" lon="3.44939">
        <ele>653.704</ele>
        <time>2020-08-16T14:17:13Z</time>
      </trkpt>
      <trkpt lat="45.18645" lon="3.44939">
        <ele>653.543</ele>
        <time>2020-08-16T14:17:14Z</time>
      </trkpt>
      <trkpt lat="45.18646" lon="3.44939">
        <ele>653.803</ele>
        <time>2020-08-16T14:17:19Z</time>
      </trkpt>
      <trkpt lat="45.18648" lon="3.4494">
        <ele>654.083</ele>
        <time>2020-08-16T14:17:21Z</time>
      </trkpt>
      <trkpt lat="45.18649" lon="3.4494">
        <ele>654.31</ele>
        <time>2020-08-16T14:17:22Z</time>
      </trkpt>
      <trkpt lat="45.1865" lon="3.4494">
        <ele>654.377</ele>
        <time>2020-08-16T14:17:23Z</time>
      </trkpt>
      <trkpt lat="45.18651" lon="3.4494">
        <ele>654.254</ele>
        <time>2020-08-16T14:17:24Z</time>
      </trkpt>
      <trkpt lat="45.18654" lon="3.44943">
        <ele>654.012</ele>
        <time>2020-08-16T14:17:26Z</time>
      </trkpt>
      <trkpt lat="45.18663" lon="3.44949">
        <ele>655.437</ele>
        <time>2020-08-16T14:17:32Z</time>
      </trkpt>
      <trkpt lat="45.18667" lon="3.44953">
        <ele>654.328</ele>
        <time>2020-08-16T14:17:36Z</time>
      </trkpt>
      <trkpt lat="45.18673" lon="3.44959">
        <ele>654.896</ele>
        <time>2020-08-16T14:17:44Z</time>
      </trkpt>
      <trkpt lat="45.18675" lon="3.4496">
        <ele>655.649</ele>
        <time>2020-08-16T14:17:46Z</time>
      </trkpt>
      <trkpt lat="45.18678" lon="3.44964">
        <ele>656.121</ele>
        <time>2020-08-16T14:17:52Z</time>
      </trkpt>
      <trkpt lat="45.1868" lon="3.44966">
        <ele>655.908</ele>
        <time>2020-08-16T14:17:54Z</time>
      </trkpt>
      <trkpt lat="45.18684" lon="3.44969">
        <ele>656.391</ele>
        <time>2020-08-16T14:17:58Z</time>
      </trkpt>
      <trkpt lat="45.18688" lon="3.44972">
        <ele>657.66</ele>
        <time>2020-08-16T14:18:01Z</time>
      </trkpt>
      <trkpt lat="45.18696" lon="3.44984">
        <ele>658.519</ele>
        <time>2020-08-16T14:18:09Z</time>
      </trkpt>
      <trkpt lat="45.18702" lon="3.45004">
        <ele>658.281</ele>
        <time>2020-08-16T14:18:19Z</time>
      </trkpt>
      <trkpt lat="45.18703" lon="3.45004">
        <ele>658.575</ele>
        <time>2020-08-16T14:18:20Z</time>
      </trkpt>
      <trkpt lat="45.18705" lon="3.4501">
        <ele>659.5</ele>
        <time>2020-08-16T14:18:25Z</time>
      </trkpt>
      <trkpt lat="45.18706" lon="3.45017">
        <ele>660.916</ele>
        <time>2020-08-16T14:18:30Z</time>
      </trkpt>
      <trkpt lat="45.18707" lon="3.45018">
        <ele>660.822</ele>
        <time>2020-08-16T14:18:31Z</time>
      </trkpt>
      <trkpt lat="45.1871" lon="3.45023">
        <ele>661.985</ele>
        <time>2020-08-16T14:18:36Z</time>
      </trkpt>
      <trkpt lat="45.18714" lon="3.45032">
        <ele>663.633</ele>
        <time>2020-08-16T14:18:46Z</time>
      </trkpt>
      <trkpt lat="45.18714" lon="3.45033">
        <ele>663.594</ele>
        <time>2020-08-16T14:18:47Z</time>
      </trkpt>
      <trkpt lat="45.18714" lon="3.45035">
        <ele>663.614</ele>
        <time>2020-08-16T14:18:49Z</time>
      </trkpt>
      <trkpt lat="45.18718" lon="3.45048">
        <ele>664.293</ele>
        <time>2020-08-16T14:18:56Z</time>
      </trkpt>
      <trkpt lat="45.18719" lon="3.45052">
        <ele>664.884</ele>
        <time>2020-08-16T14:18:59Z</time>
      </trkpt>
      <trkpt lat="45.1872" lon="3.45053">
        <ele>664.969</ele>
        <time>2020-08-16T14:19:00Z</time>
      </trkpt>
      <trkpt lat="45.18728" lon="3.45057">
        <ele>665.263</ele>
        <time>2020-08-16T14:19:07Z</time>
      </trkpt>
      <trkpt lat="45.18729" lon="3.45059">
        <ele>664.465</ele>
        <time>2020-08-16T14:19:11Z</time>
      </trkpt>
      <trkpt lat="45.18729" lon="3.45059">
        <ele>664.465</ele>
        <time>2020-08-16T14:19:11Z</time>
      </trkpt>
      <trkpt lat="45.18728" lon="3.45058">
        <ele>664.848</ele>
        <time>2020-08-16T14:19:12Z</time>
      </trkpt>
      <trkpt lat="45.18729" lon="3.45058">
        <ele>664.941</ele>
        <time>2020-08-16T14:19:14Z</time>
      </trkpt>
      <trkpt lat="45.1873" lon="3.45059">
        <ele>665.21</ele>
        <time>2020-08-16T14:19:15Z</time>
      </trkpt>
      <trkpt lat="45.18731" lon="3.45065">
        <ele>665.747</ele>
        <time>2020-08-16T14:19:18Z</time>
      </trkpt>
      <trkpt lat="45.18733" lon="3.4507">
        <ele>665.245</ele>
        <time>2020-08-16T14:19:20Z</time>
      </trkpt>
      <trkpt lat="45.18738" lon="3.45082">
        <ele>666.568</ele>
        <time>2020-08-16T14:19:26Z</time>
      </trkpt>
      <trkpt lat="45.18752" lon="3.45099">
        <ele>668.624</ele>
        <time>2020-08-16T14:19:37Z</time>
      </trkpt>
      <trkpt lat="45.18755" lon="3.45109">
        <ele>668.203</ele>
        <time>2020-08-16T14:19:48Z</time>
      </trkpt>
      <trkpt lat="45.18756" lon="3.45113">
        <ele>669.371</ele>
        <time>2020-08-16T14:19:52Z</time>
      </trkpt>
      <trkpt lat="45.18756" lon="3.45113">
        <ele>669.985</ele>
        <time>2020-08-16T14:19:55Z</time>
      </trkpt>
      <trkpt lat="45.18757" lon="3.45111">
        <ele>669.729</ele>
        <time>2020-08-16T14:19:59Z</time>
      </trkpt>
      <trkpt lat="45.18759" lon="3.4511">
        <ele>669.18</ele>
        <time>2020-08-16T14:20:01Z</time>
      </trkpt>
      <trkpt lat="45.18784" lon="3.45112">
        <ele>669.579</ele>
        <time>2020-08-16T14:20:15Z</time>
      </trkpt>
      <trkpt lat="45.18784" lon="3.45112">
        <ele>670.098</ele>
        <time>2020-08-16T14:20:16Z</time>
      </trkpt>
      <trkpt lat="45.18788" lon="3.45112">
        <ele>670.502</ele>
        <time>2020-08-16T14:20:19Z</time>
      </trkpt>
      <trkpt lat="45.18792" lon="3.45111">
        <ele>670.999</ele>
        <time>2020-08-16T14:20:22Z</time>
      </trkpt>
      <trkpt lat="45.18795" lon="3.45113">
        <ele>672.097</ele>
        <time>2020-08-16T14:20:24Z</time>
      </trkpt>
      <trkpt lat="45.188" lon="3.45114">
        <ele>671.893</ele>
        <time>2020-08-16T14:20:30Z</time>
      </trkpt>
      <trkpt lat="45.18803" lon="3.45111">
        <ele>672.073</ele>
        <time>2020-08-16T14:20:35Z</time>
      </trkpt>
      <trkpt lat="45.18806" lon="3.45109">
        <ele>671.355</ele>
        <time>2020-08-16T14:20:37Z</time>
      </trkpt>
      <trkpt lat="45.18812" lon="3.45107">
        <ele>670.453</ele>
        <time>2020-08-16T14:20:41Z</time>
      </trkpt>
      <trkpt lat="45.18823" lon="3.45104">
        <ele>670.621</ele>
        <time>2020-08-16T14:20:49Z</time>
      </trkpt>
      <trkpt lat="45.18824" lon="3.45104">
        <ele>671.052</ele>
        <time>2020-08-16T14:20:50Z</time>
      </trkpt>
      <trkpt lat="45.18825" lon="3.45104">
        <ele>671.311</ele>
        <time>2020-08-16T14:20:51Z</time>
      </trkpt>
      <trkpt lat="45.1883" lon="3.45101">
        <ele>671.719</ele>
        <time>2020-08-16T14:20:56Z</time>
      </trkpt>
      <trkpt lat="45.18842" lon="3.45099">
        <ele>669.622</ele>
        <time>2020-08-16T14:21:06Z</time>
      </trkpt>
      <trkpt lat="45.18849" lon="3.45095">
        <ele>668.285</ele>
        <time>2020-08-16T14:21:12Z</time>
      </trkpt>
      <trkpt lat="45.1885" lon="3.4509">
        <ele>668.772</ele>
        <time>2020-08-16T14:21:15Z</time>
      </trkpt>
      <trkpt lat="45.1885" lon="3.45085">
        <ele>667.704</ele>
        <time>2020-08-16T14:21:20Z</time>
      </trkpt>
      <trkpt lat="45.18851" lon="3.45084">
        <ele>667.194</ele>
        <time>2020-08-16T14:21:23Z</time>
      </trkpt>
      <trkpt lat="45.18851" lon="3.45082">
        <ele>668.649</ele>
        <time>2020-08-16T14:21:27Z</time>
      </trkpt>
      <trkpt lat="45.18851" lon="3.45082">
        <ele>669.476</ele>
        <time>2020-08-16T14:21:29Z</time>
      </trkpt>
      <trkpt lat="45.18851" lon="3.45081">
        <ele>669.419</ele>
        <time>2020-08-16T14:21:30Z</time>
      </trkpt>
      <trkpt lat="45.18851" lon="3.45081">
        <ele>670.469</ele>
        <time>2020-08-16T14:21:32Z</time>
      </trkpt>
      <trkpt lat="45.18851" lon="3.45079">
        <ele>670.52</ele>
        <time>2020-08-16T14:21:34Z</time>
      </trkpt>
      <trkpt lat="45.18851" lon="3.45079">
        <ele>671.789</ele>
        <time>2020-08-16T14:21:36Z</time>
      </trkpt>
      <trkpt lat="45.18851" lon="3.45078">
        <ele>672.221</ele>
        <time>2020-08-16T14:21:37Z</time>
      </trkpt>
      <trkpt lat="45.18851" lon="3.45082">
        <ele>672.741</ele>
        <time>2020-08-16T14:21:43Z</time>
      </trkpt>
      <trkpt lat="45.1885" lon="3.45082">
        <ele>672.679</ele>
        <time>2020-08-16T14:21:44Z</time>
      </trkpt>
      <trkpt lat="45.1885" lon="3.45082">
        <ele>672.899</ele>
        <time>2020-08-16T14:21:45Z</time>
      </trkpt>
      <trkpt lat="45.1885" lon="3.45082">
        <ele>672.894</ele>
        <time>2020-08-16T14:21:59Z</time>
      </trkpt>
      <trkpt lat="45.18849" lon="3.45079">
        <ele>672.734</ele>
        <time>2020-08-16T14:22:00Z</time>
      </trkpt>
      <trkpt lat="45.18852" lon="3.45069">
        <ele>670.701</ele>
        <time>2020-08-16T14:22:08Z</time>
      </trkpt>
      <trkpt lat="45.18855" lon="3.45059">
        <ele>672.24</ele>
        <time>2020-08-16T14:22:17Z</time>
      </trkpt>
      <trkpt lat="45.18856" lon="3.45056">
        <ele>671.112</ele>
        <time>2020-08-16T14:22:19Z</time>
      </trkpt>
      <trkpt lat="45.18856" lon="3.45054">
        <ele>671.33</ele>
        <time>2020-08-16T14:22:20Z</time>
      </trkpt>
      <trkpt lat="45.18858" lon="3.4505">
        <ele>671.869</ele>
        <time>2020-08-16T14:22:24Z</time>
      </trkpt>
      <trkpt lat="45.18861" lon="3.45034">
        <ele>670.728</ele>
        <time>2020-08-16T14:22:39Z</time>
      </trkpt>
      <trkpt lat="45.18862" lon="3.45033">
        <ele>670.824</ele>
        <time>2020-08-16T14:22:40Z</time>
      </trkpt>
      <trkpt lat="45.18862" lon="3.45028">
        <ele>669.876</ele>
        <time>2020-08-16T14:22:43Z</time>
      </trkpt>
      <trkpt lat="45.18861" lon="3.45023">
        <ele>670.027</ele>
        <time>2020-08-16T14:22:47Z</time>
      </trkpt>
      <trkpt lat="45.18861" lon="3.45018">
        <ele>670.456</ele>
        <time>2020-08-16T14:22:51Z</time>
      </trkpt>
      <trkpt lat="45.18859" lon="3.45003">
        <ele>672.508</ele>
        <time>2020-08-16T14:22:59Z</time>
      </trkpt>
      <trkpt lat="45.18856" lon="3.44995">
        <ele>670.588</ele>
        <time>2020-08-16T14:23:04Z</time>
      </trkpt>
      <trkpt lat="45.18852" lon="3.4499">
        <ele>669.428</ele>
        <time>2020-08-16T14:23:09Z</time>
      </trkpt>
      <trkpt lat="45.18823" lon="3.4496">
        <ele>669.481</ele>
        <time>2020-08-16T14:23:40Z</time>
      </trkpt>
      <trkpt lat="45.18823" lon="3.4496">
        <ele>670.197</ele>
        <time>2020-08-16T14:23:41Z</time>
      </trkpt>
      <trkpt lat="45.18823" lon="3.4496">
        <ele>670.559</ele>
        <time>2020-08-16T14:23:42Z</time>
      </trkpt>
      <trkpt lat="45.18823" lon="3.4496">
        <ele>671.216</ele>
        <time>2020-08-16T14:23:44Z</time>
      </trkpt>
      <trkpt lat="45.18822" lon="3.44961">
        <ele>671.728</ele>
        <time>2020-08-16T14:23:45Z</time>
      </trkpt>
      <trkpt lat="45.18822" lon="3.4496">
        <ele>672.18</ele>
        <time>2020-08-16T14:23:46Z</time>
      </trkpt>
      <trkpt lat="45.18823" lon="3.44956">
        <ele>673.405</ele>
        <time>2020-08-16T14:23:49Z</time>
      </trkpt>
      <trkpt lat="45.18822" lon="3.44951">
        <ele>673.36</ele>
        <time>2020-08-16T14:23:53Z</time>
      </trkpt>
      <trkpt lat="45.1882" lon="3.4495">
        <ele>672.973</ele>
        <time>2020-08-16T14:23:54Z</time>
      </trkpt>
      <trkpt lat="45.18817" lon="3.44947">
        <ele>674.546</ele>
        <time>2020-08-16T14:23:57Z</time>
      </trkpt>
      <trkpt lat="45.18812" lon="3.44932">
        <ele>673.687</ele>
        <time>2020-08-16T14:24:10Z</time>
      </trkpt>
      <trkpt lat="45.18811" lon="3.44929">
        <ele>675.384</ele>
        <time>2020-08-16T14:24:13Z</time>
      </trkpt>
      <trkpt lat="45.1881" lon="3.44919">
        <ele>674.256</ele>
        <time>2020-08-16T14:24:21Z</time>
      </trkpt>
      <trkpt lat="45.18809" lon="3.44914">
        <ele>673.212</ele>
        <time>2020-08-16T14:24:24Z</time>
      </trkpt>
      <trkpt lat="45.18805" lon="3.44901">
        <ele>675.351</ele>
        <time>2020-08-16T14:24:33Z</time>
      </trkpt>
      <trkpt lat="45.18804" lon="3.44892">
        <ele>676.453</ele>
        <time>2020-08-16T14:24:40Z</time>
      </trkpt>
      <trkpt lat="45.18802" lon="3.44882">
        <ele>677.668</ele>
        <time>2020-08-16T14:24:49Z</time>
      </trkpt>
      <trkpt lat="45.18801" lon="3.44873">
        <ele>678.322</ele>
        <time>2020-08-16T14:24:53Z</time>
      </trkpt>
      <trkpt lat="45.18799" lon="3.44861">
        <ele>677.962</ele>
        <time>2020-08-16T14:25:00Z</time>
      </trkpt>
      <trkpt lat="45.18795" lon="3.44849">
        <ele>678.408</ele>
        <time>2020-08-16T14:25:09Z</time>
      </trkpt>
      <trkpt lat="45.18793" lon="3.44844">
        <ele>679.032</ele>
        <time>2020-08-16T14:25:12Z</time>
      </trkpt>
      <trkpt lat="45.18793" lon="3.44837">
        <ele>679.368</ele>
        <time>2020-08-16T14:25:17Z</time>
      </trkpt>
      <trkpt lat="45.18795" lon="3.44833">
        <ele>679.317</ele>
        <time>2020-08-16T14:25:20Z</time>
      </trkpt>
      <trkpt lat="45.18798" lon="3.44813">
        <ele>680.098</ele>
        <time>2020-08-16T14:25:31Z</time>
      </trkpt>
      <trkpt lat="45.18801" lon="3.44803">
        <ele>680.36</ele>
        <time>2020-08-16T14:25:35Z</time>
      </trkpt>
      <trkpt lat="45.18802" lon="3.44796">
        <ele>678.849</ele>
        <time>2020-08-16T14:25:39Z</time>
      </trkpt>
      <trkpt lat="45.18809" lon="3.44775">
        <ele>679.921</ele>
        <time>2020-08-16T14:25:54Z</time>
      </trkpt>
      <trkpt lat="45.1881" lon="3.44771">
        <ele>680.383</ele>
        <time>2020-08-16T14:25:57Z</time>
      </trkpt>
      <trkpt lat="45.18811" lon="3.44766">
        <ele>680.133</ele>
        <time>2020-08-16T14:26:01Z</time>
      </trkpt>
      <trkpt lat="45.18812" lon="3.44761">
        <ele>680.622</ele>
        <time>2020-08-16T14:26:04Z</time>
      </trkpt>
      <trkpt lat="45.18814" lon="3.44757">
        <ele>679.942</ele>
        <time>2020-08-16T14:26:08Z</time>
      </trkpt>
      <trkpt lat="45.18815" lon="3.44756">
        <ele>680.154</ele>
        <time>2020-08-16T14:26:09Z</time>
      </trkpt>
      <trkpt lat="45.18817" lon="3.44752">
        <ele>680.119</ele>
        <time>2020-08-16T14:26:12Z</time>
      </trkpt>
      <trkpt lat="45.18821" lon="3.44745">
        <ele>681.124</ele>
        <time>2020-08-16T14:26:18Z</time>
      </trkpt>
      <trkpt lat="45.18822" lon="3.44733">
        <ele>680.754</ele>
        <time>2020-08-16T14:26:27Z</time>
      </trkpt>
      <trkpt lat="45.18829" lon="3.44713">
        <ele>682.756</ele>
        <time>2020-08-16T14:26:39Z</time>
      </trkpt>
      <trkpt lat="45.18833" lon="3.44706">
        <ele>680.508</ele>
        <time>2020-08-16T14:26:45Z</time>
      </trkpt>
      <trkpt lat="45.18837" lon="3.44691">
        <ele>680.012</ele>
        <time>2020-08-16T14:26:54Z</time>
      </trkpt>
      <trkpt lat="45.18839" lon="3.44685">
        <ele>680.791</ele>
        <time>2020-08-16T14:26:57Z</time>
      </trkpt>
      <trkpt lat="45.18841" lon="3.44681">
        <ele>679.86</ele>
        <time>2020-08-16T14:27:00Z</time>
      </trkpt>
      <trkpt lat="45.18847" lon="3.44665">
        <ele>677.727</ele>
        <time>2020-08-16T14:27:12Z</time>
      </trkpt>
      <trkpt lat="45.18848" lon="3.4466">
        <ele>677.284</ele>
        <time>2020-08-16T14:27:15Z</time>
      </trkpt>
      <trkpt lat="45.1886" lon="3.44627">
        <ele>680.005</ele>
        <time>2020-08-16T14:27:35Z</time>
      </trkpt>
      <trkpt lat="45.18861" lon="3.44615">
        <ele>678.998</ele>
        <time>2020-08-16T14:27:42Z</time>
      </trkpt>
      <trkpt lat="45.1886" lon="3.44604">
        <ele>679.706</ele>
        <time>2020-08-16T14:27:47Z</time>
      </trkpt>
      <trkpt lat="45.1886" lon="3.44603">
        <ele>679.495</ele>
        <time>2020-08-16T14:27:49Z</time>
      </trkpt>
      <trkpt lat="45.18858" lon="3.44596">
        <ele>678.953</ele>
        <time>2020-08-16T14:27:53Z</time>
      </trkpt>
      <trkpt lat="45.18855" lon="3.4459">
        <ele>679.288</ele>
        <time>2020-08-16T14:27:57Z</time>
      </trkpt>
      <trkpt lat="45.1884" lon="3.44553">
        <ele>681.063</ele>
        <time>2020-08-16T14:28:24Z</time>
      </trkpt>
      <trkpt lat="45.18839" lon="3.44529">
        <ele>682.626</ele>
        <time>2020-08-16T14:28:42Z</time>
      </trkpt>
      <trkpt lat="45.1884" lon="3.4452">
        <ele>684.7</ele>
        <time>2020-08-16T14:28:48Z</time>
      </trkpt>
      <trkpt lat="45.18842" lon="3.44514">
        <ele>684.309</ele>
        <time>2020-08-16T14:28:52Z</time>
      </trkpt>
      <trkpt lat="45.18843" lon="3.44509">
        <ele>684.315</ele>
        <time>2020-08-16T14:28:56Z</time>
      </trkpt>
      <trkpt lat="45.18844" lon="3.44504">
        <ele>684.44</ele>
        <time>2020-08-16T14:29:01Z</time>
      </trkpt>
      <trkpt lat="45.18844" lon="3.44504">
        <ele>684.44</ele>
        <time>2020-08-16T14:29:01Z</time>
      </trkpt>
      <trkpt lat="45.18844" lon="3.44504">
        <ele>684.604</ele>
        <time>2020-08-16T14:29:02Z</time>
      </trkpt>
      <trkpt lat="45.18844" lon="3.44504">
        <ele>684.929</ele>
        <time>2020-08-16T14:29:03Z</time>
      </trkpt>
      <trkpt lat="45.18844" lon="3.44503">
        <ele>685.425</ele>
        <time>2020-08-16T14:29:04Z</time>
      </trkpt>
      <trkpt lat="45.18844" lon="3.44505">
        <ele>685.584</ele>
        <time>2020-08-16T14:29:07Z</time>
      </trkpt>
      <trkpt lat="45.18844" lon="3.44505">
        <ele>685.277</ele>
        <time>2020-08-16T14:29:09Z</time>
      </trkpt>
      <trkpt lat="45.18844" lon="3.44505">
        <ele>685.568</ele>
        <time>2020-08-16T14:29:10Z</time>
      </trkpt>
      <trkpt lat="45.18844" lon="3.44504">
        <ele>685.352</ele>
        <time>2020-08-16T14:29:11Z</time>
      </trkpt>
      <trkpt lat="45.18845" lon="3.44504">
        <ele>685.762</ele>
        <time>2020-08-16T14:29:13Z</time>
      </trkpt>
      <trkpt lat="45.18845" lon="3.44504">
        <ele>685.625</ele>
        <time>2020-08-16T14:29:17Z</time>
      </trkpt>
      <trkpt lat="45.18844" lon="3.44504">
        <ele>685.237</ele>
        <time>2020-08-16T14:29:18Z</time>
      </trkpt>
      <trkpt lat="45.18843" lon="3.44505">
        <ele>685.087</ele>
        <time>2020-08-16T14:29:20Z</time>
      </trkpt>
      <trkpt lat="45.18843" lon="3.44505">
        <ele>685.27</ele>
        <time>2020-08-16T14:29:39Z</time>
      </trkpt>
      <trkpt lat="45.18844" lon="3.44503">
        <ele>685.26</ele>
        <time>2020-08-16T14:29:40Z</time>
      </trkpt>
      <trkpt lat="45.18843" lon="3.44502">
        <ele>684.842</ele>
        <time>2020-08-16T14:29:44Z</time>
      </trkpt>
      <trkpt lat="45.18843" lon="3.44502">
        <ele>685.104</ele>
        <time>2020-08-16T14:29:47Z</time>
      </trkpt>
      <trkpt lat="45.18843" lon="3.44504">
        <ele>685.233</ele>
        <time>2020-08-16T14:29:48Z</time>
      </trkpt>
      <trkpt lat="45.18843" lon="3.44505">
        <ele>685.277</ele>
        <time>2020-08-16T14:29:50Z</time>
      </trkpt>
      <trkpt lat="45.18843" lon="3.44505">
        <ele>686.75</ele>
        <time>2020-08-16T14:29:52Z</time>
      </trkpt>
      <trkpt lat="45.18843" lon="3.44505">
        <ele>686.75</ele>
        <time>2020-08-16T14:29:52Z</time>
      </trkpt>
      <trkpt lat="45.18842" lon="3.44504">
        <ele>686.644</ele>
        <time>2020-08-16T14:29:53Z</time>
      </trkpt>
      <trkpt lat="45.18842" lon="3.44504">
        <ele>685.643</ele>
        <time>2020-08-16T14:29:54Z</time>
      </trkpt>
      <trkpt lat="45.18841" lon="3.44502">
        <ele>684.746</ele>
        <time>2020-08-16T14:29:56Z</time>
      </trkpt>
      <trkpt lat="45.18841" lon="3.44496">
        <ele>684.976</ele>
        <time>2020-08-16T14:30:02Z</time>
      </trkpt>
      <trkpt lat="45.18842" lon="3.44494">
        <ele>684.346</ele>
        <time>2020-08-16T14:30:04Z</time>
      </trkpt>
      <trkpt lat="45.18842" lon="3.44494">
        <ele>684.346</ele>
        <time>2020-08-16T14:30:04Z</time>
      </trkpt>
      <trkpt lat="45.18842" lon="3.44494">
        <ele>684.333</ele>
        <time>2020-08-16T14:30:05Z</time>
      </trkpt>
      <trkpt lat="45.18842" lon="3.44494">
        <ele>684.334</ele>
        <time>2020-08-16T14:32:05Z</time>
      </trkpt>
      <trkpt lat="45.18842" lon="3.44495">
        <ele>684.872</ele>
        <time>2020-08-16T14:32:06Z</time>
      </trkpt>
      <trkpt lat="45.18842" lon="3.44495">
        <ele>684.881</ele>
        <time>2020-08-16T14:32:07Z</time>
      </trkpt>
      <trkpt lat="45.18842" lon="3.44496">
        <ele>684.98</ele>
        <time>2020-08-16T14:32:09Z</time>
      </trkpt>
      <trkpt lat="45.18842" lon="3.44496">
        <ele>685.236</ele>
        <time>2020-08-16T14:32:10Z</time>
      </trkpt>
      <trkpt lat="45.18841" lon="3.44496">
        <ele>685.447</ele>
        <time>2020-08-16T14:32:11Z</time>
      </trkpt>
      <trkpt lat="45.18841" lon="3.44496">
        <ele>685.463</ele>
        <time>2020-08-16T14:32:12Z</time>
      </trkpt>
      <trkpt lat="45.18841" lon="3.44496">
        <ele>685.463</ele>
        <time>2020-08-16T14:32:12Z</time>
      </trkpt>
      <trkpt lat="45.18842" lon="3.44496">
        <ele>685.739</ele>
        <time>2020-08-16T14:32:13Z</time>
      </trkpt>
      <trkpt lat="45.18842" lon="3.44495">
        <ele>686.586</ele>
        <time>2020-08-16T14:32:16Z</time>
      </trkpt>
      <trkpt lat="45.18842" lon="3.44495">
        <ele>686.586</ele>
        <time>2020-08-16T14:32:16Z</time>
      </trkpt>
      <trkpt lat="45.18842" lon="3.44495">
        <ele>686.378</ele>
        <time>2020-08-16T14:32:17Z</time>
      </trkpt>
      <trkpt lat="45.18842" lon="3.44495">
        <ele>686.378</ele>
        <time>2020-08-16T14:32:17Z</time>
      </trkpt>
      <trkpt lat="45.18842" lon="3.44495">
        <ele>686.067</ele>
        <time>2020-08-16T14:32:18Z</time>
      </trkpt>
      <trkpt lat="45.18842" lon="3.44495">
        <ele>686.067</ele>
        <time>2020-08-16T14:32:18Z</time>
      </trkpt>
      <trkpt lat="45.18842" lon="3.44495">
        <ele>686.053</ele>
        <time>2020-08-16T14:32:19Z</time>
      </trkpt>
      <trkpt lat="45.18842" lon="3.44495">
        <ele>686.053</ele>
        <time>2020-08-16T14:32:19Z</time>
      </trkpt>
      <trkpt lat="45.18842" lon="3.44495">
        <ele>685.677</ele>
        <time>2020-08-16T14:32:20Z</time>
      </trkpt>
      <trkpt lat="45.18842" lon="3.44495">
        <ele>685.671</ele>
        <time>2020-08-16T14:32:23Z</time>
      </trkpt>
      <trkpt lat="45.18841" lon="3.44496">
        <ele>685.367</ele>
        <time>2020-08-16T14:32:24Z</time>
      </trkpt>
      <trkpt lat="45.18841" lon="3.44496">
        <ele>684.737</ele>
        <time>2020-08-16T14:32:25Z</time>
      </trkpt>
      <trkpt lat="45.18841" lon="3.44496">
        <ele>684.9</ele>
        <time>2020-08-16T14:32:35Z</time>
      </trkpt>
      <trkpt lat="45.18841" lon="3.44496">
        <ele>684.959</ele>
        <time>2020-08-16T14:32:36Z</time>
      </trkpt>
      <trkpt lat="45.18841" lon="3.44496">
        <ele>684.824</ele>
        <time>2020-08-16T14:32:37Z</time>
      </trkpt>
      <trkpt lat="45.18841" lon="3.44496">
        <ele>684.817</ele>
        <time>2020-08-16T14:32:38Z</time>
      </trkpt>
      <trkpt lat="45.1884" lon="3.44497">
        <ele>685.119</ele>
        <time>2020-08-16T14:32:39Z</time>
      </trkpt>
      <trkpt lat="45.1884" lon="3.44498">
        <ele>685.498</ele>
        <time>2020-08-16T14:32:40Z</time>
      </trkpt>
      <trkpt lat="45.1884" lon="3.44497">
        <ele>685.158</ele>
        <time>2020-08-16T14:32:42Z</time>
      </trkpt>
      <trkpt lat="45.1884" lon="3.44497">
        <ele>685.24</ele>
        <time>2020-08-16T14:32:43Z</time>
      </trkpt>
      <trkpt lat="45.18841" lon="3.44496">
        <ele>685.223</ele>
        <time>2020-08-16T14:33:03Z</time>
      </trkpt>
      <trkpt lat="45.18841" lon="3.44495">
        <ele>685.261</ele>
        <time>2020-08-16T14:33:04Z</time>
      </trkpt>
      <trkpt lat="45.18841" lon="3.44495">
        <ele>685.263</ele>
        <time>2020-08-16T14:33:05Z</time>
      </trkpt>
      <trkpt lat="45.18841" lon="3.44495">
        <ele>686.388</ele>
        <time>2020-08-16T14:33:42Z</time>
      </trkpt>
      <trkpt lat="45.18841" lon="3.44495">
        <ele>686.51</ele>
        <time>2020-08-16T14:33:43Z</time>
      </trkpt>
      <trkpt lat="45.18841" lon="3.44495">
        <ele>686.53</ele>
        <time>2020-08-16T14:33:44Z</time>
      </trkpt>
      <trkpt lat="45.18841" lon="3.44495">
        <ele>686.512</ele>
        <time>2020-08-16T14:33:46Z</time>
      </trkpt>
      <trkpt lat="45.18841" lon="3.44496">
        <ele>686.786</ele>
        <time>2020-08-16T14:33:47Z</time>
      </trkpt>
      <trkpt lat="45.18841" lon="3.44496">
        <ele>687.657</ele>
        <time>2020-08-16T14:33:49Z</time>
      </trkpt>
      <trkpt lat="45.18841" lon="3.44496">
        <ele>687.66</ele>
        <time>2020-08-16T14:34:09Z</time>
      </trkpt>
      <trkpt lat="45.1884" lon="3.44496">
        <ele>687.485</ele>
        <time>2020-08-16T14:34:10Z</time>
      </trkpt>
      <trkpt lat="45.1884" lon="3.44495">
        <ele>687.016</ele>
        <time>2020-08-16T14:34:11Z</time>
      </trkpt>
      <trkpt lat="45.1884" lon="3.44494">
        <ele>686.425</ele>
        <time>2020-08-16T14:34:12Z</time>
      </trkpt>
      <trkpt lat="45.1884" lon="3.44493">
        <ele>685.944</ele>
        <time>2020-08-16T14:34:14Z</time>
      </trkpt>
      <trkpt lat="45.18839" lon="3.44493">
        <ele>685.95</ele>
        <time>2020-08-16T14:34:15Z</time>
      </trkpt>
      <trkpt lat="45.18837" lon="3.44496">
        <ele>684.738</ele>
        <time>2020-08-16T14:34:21Z</time>
      </trkpt>
      <trkpt lat="45.18837" lon="3.44496">
        <ele>684.712</ele>
        <time>2020-08-16T14:34:24Z</time>
      </trkpt>
      <trkpt lat="45.18837" lon="3.44494">
        <ele>684.615</ele>
        <time>2020-08-16T14:34:25Z</time>
      </trkpt>
      <trkpt lat="45.18837" lon="3.44492">
        <ele>685.178</ele>
        <time>2020-08-16T14:34:28Z</time>
      </trkpt>
      <trkpt lat="45.18838" lon="3.44493">
        <ele>685.358</ele>
        <time>2020-08-16T14:34:29Z</time>
      </trkpt>
      <trkpt lat="45.18839" lon="3.44496">
        <ele>683.453</ele>
        <time>2020-08-16T14:34:33Z</time>
      </trkpt>
      <trkpt lat="45.1884" lon="3.445">
        <ele>684.899</ele>
        <time>2020-08-16T14:34:37Z</time>
      </trkpt>
      <trkpt lat="45.1884" lon="3.445">
        <ele>684.899</ele>
        <time>2020-08-16T14:34:37Z</time>
      </trkpt>
      <trkpt lat="45.1884" lon="3.445">
        <ele>685.289</ele>
        <time>2020-08-16T14:34:38Z</time>
      </trkpt>
      <trkpt lat="45.1884" lon="3.445">
        <ele>685.628</ele>
        <time>2020-08-16T14:34:39Z</time>
      </trkpt>
      <trkpt lat="45.18841" lon="3.44502">
        <ele>684.953</ele>
        <time>2020-08-16T14:34:40Z</time>
      </trkpt>
      <trkpt lat="45.18843" lon="3.44506">
        <ele>685.194</ele>
        <time>2020-08-16T14:34:43Z</time>
      </trkpt>
      <trkpt lat="45.18846" lon="3.44509">
        <ele>685.51</ele>
        <time>2020-08-16T14:34:47Z</time>
      </trkpt>
      <trkpt lat="45.1885" lon="3.44511">
        <ele>684.772</ele>
        <time>2020-08-16T14:34:51Z</time>
      </trkpt>
      <trkpt lat="45.18852" lon="3.44512">
        <ele>685.673</ele>
        <time>2020-08-16T14:34:54Z</time>
      </trkpt>
      <trkpt lat="45.18867" lon="3.44516">
        <ele>686.565</ele>
        <time>2020-08-16T14:35:11Z</time>
      </trkpt>
      <trkpt lat="45.18867" lon="3.44516">
        <ele>686.557</ele>
        <time>2020-08-16T14:35:13Z</time>
      </trkpt>
      <trkpt lat="45.18868" lon="3.44516">
        <ele>686.667</ele>
        <time>2020-08-16T14:35:14Z</time>
      </trkpt>
      <trkpt lat="45.18869" lon="3.44517">
        <ele>686.06</ele>
        <time>2020-08-16T14:35:17Z</time>
      </trkpt>
      <trkpt lat="45.18871" lon="3.44515">
        <ele>685.741</ele>
        <time>2020-08-16T14:35:21Z</time>
      </trkpt>
      <trkpt lat="45.18875" lon="3.44513">
        <ele>685.375</ele>
        <time>2020-08-16T14:35:29Z</time>
      </trkpt>
      <trkpt lat="45.18894" lon="3.44501">
        <ele>683.635</ele>
        <time>2020-08-16T14:35:49Z</time>
      </trkpt>
      <trkpt lat="45.18898" lon="3.44501">
        <ele>681.076</ele>
        <time>2020-08-16T14:35:52Z</time>
      </trkpt>
      <trkpt lat="45.18905" lon="3.445">
        <ele>679.718</ele>
        <time>2020-08-16T14:36:00Z</time>
      </trkpt>
      <trkpt lat="45.1891" lon="3.44499">
        <ele>679.936</ele>
        <time>2020-08-16T14:36:06Z</time>
      </trkpt>
      <trkpt lat="45.18935" lon="3.44497">
        <ele>677.936</ele>
        <time>2020-08-16T14:36:30Z</time>
      </trkpt>
      <trkpt lat="45.18975" lon="3.44499">
        <ele>678.2</ele>
        <time>2020-08-16T14:37:06Z</time>
      </trkpt>
      <trkpt lat="45.18982" lon="3.44499">
        <ele>678.083</ele>
        <time>2020-08-16T14:37:09Z</time>
      </trkpt>
      <trkpt lat="45.18984" lon="3.44499">
        <ele>678.231</ele>
        <time>2020-08-16T14:37:11Z</time>
      </trkpt>
      <trkpt lat="45.19005" lon="3.44495">
        <ele>676.827</ele>
        <time>2020-08-16T14:37:32Z</time>
      </trkpt>
      <trkpt lat="45.19022" lon="3.44486">
        <ele>676.553</ele>
        <time>2020-08-16T14:37:48Z</time>
      </trkpt>
      <trkpt lat="45.19031" lon="3.44476">
        <ele>675.614</ele>
        <time>2020-08-16T14:37:59Z</time>
      </trkpt>
      <trkpt lat="45.19033" lon="3.4447">
        <ele>675.002</ele>
        <time>2020-08-16T14:38:03Z</time>
      </trkpt>
      <trkpt lat="45.19037" lon="3.44462">
        <ele>672.954</ele>
        <time>2020-08-16T14:38:10Z</time>
      </trkpt>
      <trkpt lat="45.19039" lon="3.44459">
        <ele>672.883</ele>
        <time>2020-08-16T14:38:13Z</time>
      </trkpt>
      <trkpt lat="45.19056" lon="3.44439">
        <ele>673.603</ele>
        <time>2020-08-16T14:38:34Z</time>
      </trkpt>
      <trkpt lat="45.19068" lon="3.44431">
        <ele>672.853</ele>
        <time>2020-08-16T14:38:47Z</time>
      </trkpt>
      <trkpt lat="45.19074" lon="3.44428">
        <ele>670.721</ele>
        <time>2020-08-16T14:38:53Z</time>
      </trkpt>
      <trkpt lat="45.19081" lon="3.44425">
        <ele>668.613</ele>
        <time>2020-08-16T14:39:03Z</time>
      </trkpt>
      <trkpt lat="45.19098" lon="3.44419">
        <ele>666.605</ele>
        <time>2020-08-16T14:39:20Z</time>
      </trkpt>
      <trkpt lat="45.19105" lon="3.44413">
        <ele>666.021</ele>
        <time>2020-08-16T14:39:26Z</time>
      </trkpt>
      <trkpt lat="45.19121" lon="3.44378">
        <ele>663.642</ele>
        <time>2020-08-16T14:39:49Z</time>
      </trkpt>
      <trkpt lat="45.19123" lon="3.4437">
        <ele>663.669</ele>
        <time>2020-08-16T14:39:56Z</time>
      </trkpt>
      <trkpt lat="45.19128" lon="3.44345">
        <ele>661.54</ele>
        <time>2020-08-16T14:40:14Z</time>
      </trkpt>
      <trkpt lat="45.19132" lon="3.44331">
        <ele>661.067</ele>
        <time>2020-08-16T14:40:24Z</time>
      </trkpt>
      <trkpt lat="45.19134" lon="3.44326">
        <ele>661.704</ele>
        <time>2020-08-16T14:40:28Z</time>
      </trkpt>
      <trkpt lat="45.19134" lon="3.44325">
        <ele>661.555</ele>
        <time>2020-08-16T14:40:29Z</time>
      </trkpt>
      <trkpt lat="45.19135" lon="3.44315">
        <ele>663.572</ele>
        <time>2020-08-16T14:40:34Z</time>
      </trkpt>
      <trkpt lat="45.19134" lon="3.44307">
        <ele>662.445</ele>
        <time>2020-08-16T14:40:37Z</time>
      </trkpt>
      <trkpt lat="45.19127" lon="3.44294">
        <ele>663.468</ele>
        <time>2020-08-16T14:40:44Z</time>
      </trkpt>
      <trkpt lat="45.19123" lon="3.44287">
        <ele>661.203</ele>
        <time>2020-08-16T14:40:49Z</time>
      </trkpt>
      <trkpt lat="45.1912" lon="3.44284">
        <ele>661.003</ele>
        <time>2020-08-16T14:40:52Z</time>
      </trkpt>
      <trkpt lat="45.19111" lon="3.4427">
        <ele>660.898</ele>
        <time>2020-08-16T14:41:02Z</time>
      </trkpt>
      <trkpt lat="45.19099" lon="3.44257">
        <ele>658.889</ele>
        <time>2020-08-16T14:41:14Z</time>
      </trkpt>
      <trkpt lat="45.19088" lon="3.44241">
        <ele>656.569</ele>
        <time>2020-08-16T14:41:27Z</time>
      </trkpt>
      <trkpt lat="45.19077" lon="3.44229">
        <ele>654.466</ele>
        <time>2020-08-16T14:41:39Z</time>
      </trkpt>
      <trkpt lat="45.19057" lon="3.44191">
        <ele>652.299</ele>
        <time>2020-08-16T14:42:09Z</time>
      </trkpt>
      <trkpt lat="45.1905" lon="3.44183">
        <ele>652.688</ele>
        <time>2020-08-16T14:42:17Z</time>
      </trkpt>
      <trkpt lat="45.1904" lon="3.44162">
        <ele>653.894</ele>
        <time>2020-08-16T14:42:31Z</time>
      </trkpt>
      <trkpt lat="45.19034" lon="3.44152">
        <ele>653.063</ele>
        <time>2020-08-16T14:42:40Z</time>
      </trkpt>
      <trkpt lat="45.19028" lon="3.44142">
        <ele>653.265</ele>
        <time>2020-08-16T14:42:49Z</time>
      </trkpt>
      <trkpt lat="45.19024" lon="3.44137">
        <ele>652.995</ele>
        <time>2020-08-16T14:42:53Z</time>
      </trkpt>
      <trkpt lat="45.19005" lon="3.44108">
        <ele>653.232</ele>
        <time>2020-08-16T14:43:19Z</time>
      </trkpt>
      <trkpt lat="45.19004" lon="3.44101">
        <ele>652.177</ele>
        <time>2020-08-16T14:43:24Z</time>
      </trkpt>
      <trkpt lat="45.18982" lon="3.44072">
        <ele>651.474</ele>
        <time>2020-08-16T14:43:46Z</time>
      </trkpt>
      <trkpt lat="45.18966" lon="3.44055">
        <ele>652.977</ele>
        <time>2020-08-16T14:44:00Z</time>
      </trkpt>
      <trkpt lat="45.18951" lon="3.4404">
        <ele>651.939</ele>
        <time>2020-08-16T14:44:14Z</time>
      </trkpt>
      <trkpt lat="45.18937" lon="3.44026">
        <ele>651.204</ele>
        <time>2020-08-16T14:44:28Z</time>
      </trkpt>
      <trkpt lat="45.18919" lon="3.43999">
        <ele>650.094</ele>
        <time>2020-08-16T14:44:50Z</time>
      </trkpt>
      <trkpt lat="45.18915" lon="3.43995">
        <ele>648.721</ele>
        <time>2020-08-16T14:44:55Z</time>
      </trkpt>
      <trkpt lat="45.18909" lon="3.43991">
        <ele>648.117</ele>
        <time>2020-08-16T14:45:01Z</time>
      </trkpt>
      <trkpt lat="45.18898" lon="3.43988">
        <ele>646.101</ele>
        <time>2020-08-16T14:45:11Z</time>
      </trkpt>
      <trkpt lat="45.18895" lon="3.43989">
        <ele>645.942</ele>
        <time>2020-08-16T14:45:15Z</time>
      </trkpt>
      <trkpt lat="45.18894" lon="3.43989">
        <ele>646.657</ele>
        <time>2020-08-16T14:45:16Z</time>
      </trkpt>
      <trkpt lat="45.18891" lon="3.43989">
        <ele>644.367</ele>
        <time>2020-08-16T14:45:24Z</time>
      </trkpt>
      <trkpt lat="45.18888" lon="3.43989">
        <ele>644.144</ele>
        <time>2020-08-16T14:45:28Z</time>
      </trkpt>
      <trkpt lat="45.18879" lon="3.43983">
        <ele>641.717</ele>
        <time>2020-08-16T14:45:37Z</time>
      </trkpt>
      <trkpt lat="45.18874" lon="3.43978">
        <ele>640.661</ele>
        <time>2020-08-16T14:45:43Z</time>
      </trkpt>
      <trkpt lat="45.1887" lon="3.43976">
        <ele>639.58</ele>
        <time>2020-08-16T14:45:48Z</time>
      </trkpt>
      <trkpt lat="45.18867" lon="3.43974">
        <ele>638.778</ele>
        <time>2020-08-16T14:45:51Z</time>
      </trkpt>
      <trkpt lat="45.18857" lon="3.43963">
        <ele>636.586</ele>
        <time>2020-08-16T14:46:02Z</time>
      </trkpt>
      <trkpt lat="45.18843" lon="3.43951">
        <ele>636.968</ele>
        <time>2020-08-16T14:46:21Z</time>
      </trkpt>
      <trkpt lat="45.18842" lon="3.43948">
        <ele>636.763</ele>
        <time>2020-08-16T14:46:26Z</time>
      </trkpt>
      <trkpt lat="45.18841" lon="3.43948">
        <ele>636.922</ele>
        <time>2020-08-16T14:46:27Z</time>
      </trkpt>
      <trkpt lat="45.18841" lon="3.43947">
        <ele>636.793</ele>
        <time>2020-08-16T14:46:28Z</time>
      </trkpt>
      <trkpt lat="45.18833" lon="3.43941">
        <ele>634.518</ele>
        <time>2020-08-16T14:46:38Z</time>
      </trkpt>
      <trkpt lat="45.18826" lon="3.43936">
        <ele>632.189</ele>
        <time>2020-08-16T14:46:45Z</time>
      </trkpt>
      <trkpt lat="45.18813" lon="3.43927">
        <ele>629.944</ele>
        <time>2020-08-16T14:46:58Z</time>
      </trkpt>
      <trkpt lat="45.188" lon="3.4391">
        <ele>627.674</ele>
        <time>2020-08-16T14:47:15Z</time>
      </trkpt>
      <trkpt lat="45.18795" lon="3.43905">
        <ele>625.613</ele>
        <time>2020-08-16T14:47:20Z</time>
      </trkpt>
      <trkpt lat="45.18786" lon="3.43892">
        <ele>624.276</ele>
        <time>2020-08-16T14:47:32Z</time>
      </trkpt>
      <trkpt lat="45.18783" lon="3.43884">
        <ele>622.114</ele>
        <time>2020-08-16T14:47:38Z</time>
      </trkpt>
      <trkpt lat="45.18771" lon="3.43863">
        <ele>619.588</ele>
        <time>2020-08-16T14:47:56Z</time>
      </trkpt>
      <trkpt lat="45.18768" lon="3.4386">
        <ele>618.444</ele>
        <time>2020-08-16T14:47:59Z</time>
      </trkpt>
      <trkpt lat="45.18763" lon="3.43856">
        <ele>618.045</ele>
        <time>2020-08-16T14:48:02Z</time>
      </trkpt>
      <trkpt lat="45.18756" lon="3.43849">
        <ele>618.362</ele>
        <time>2020-08-16T14:48:08Z</time>
      </trkpt>
      <trkpt lat="45.1875" lon="3.43846">
        <ele>616.203</ele>
        <time>2020-08-16T14:48:14Z</time>
      </trkpt>
      <trkpt lat="45.18738" lon="3.43834">
        <ele>615.896</ele>
        <time>2020-08-16T14:48:26Z</time>
      </trkpt>
      <trkpt lat="45.18723" lon="3.43806">
        <ele>613.626</ele>
        <time>2020-08-16T14:48:45Z</time>
      </trkpt>
      <trkpt lat="45.1872" lon="3.43801">
        <ele>613.281</ele>
        <time>2020-08-16T14:48:48Z</time>
      </trkpt>
      <trkpt lat="45.18707" lon="3.4378">
        <ele>611.238</ele>
        <time>2020-08-16T14:49:07Z</time>
      </trkpt>
      <trkpt lat="45.18705" lon="3.43775">
        <ele>609.628</ele>
        <time>2020-08-16T14:49:10Z</time>
      </trkpt>
      <trkpt lat="45.18701" lon="3.4377">
        <ele>607.362</ele>
        <time>2020-08-16T14:49:16Z</time>
      </trkpt>
      <trkpt lat="45.18699" lon="3.43765">
        <ele>604.997</ele>
        <time>2020-08-16T14:49:22Z</time>
      </trkpt>
      <trkpt lat="45.18694" lon="3.43757">
        <ele>604.292</ele>
        <time>2020-08-16T14:49:33Z</time>
      </trkpt>
      <trkpt lat="45.18692" lon="3.43752">
        <ele>602.243</ele>
        <time>2020-08-16T14:49:37Z</time>
      </trkpt>
      <trkpt lat="45.18686" lon="3.43738">
        <ele>600.747</ele>
        <time>2020-08-16T14:49:48Z</time>
      </trkpt>
      <trkpt lat="45.18674" lon="3.43707">
        <ele>599.226</ele>
        <time>2020-08-16T14:50:17Z</time>
      </trkpt>
      <trkpt lat="45.18674" lon="3.43703">
        <ele>598.101</ele>
        <time>2020-08-16T14:50:20Z</time>
      </trkpt>
      <trkpt lat="45.18671" lon="3.43699">
        <ele>596.869</ele>
        <time>2020-08-16T14:50:24Z</time>
      </trkpt>
      <trkpt lat="45.18671" lon="3.43698">
        <ele>596.531</ele>
        <time>2020-08-16T14:50:25Z</time>
      </trkpt>
      <trkpt lat="45.1867" lon="3.43697">
        <ele>596.031</ele>
        <time>2020-08-16T14:50:26Z</time>
      </trkpt>
      <trkpt lat="45.18669" lon="3.43694">
        <ele>595.567</ele>
        <time>2020-08-16T14:50:28Z</time>
      </trkpt>
      <trkpt lat="45.18664" lon="3.43686">
        <ele>593.157</ele>
        <time>2020-08-16T14:50:34Z</time>
      </trkpt>
      <trkpt lat="45.18661" lon="3.43682">
        <ele>591.689</ele>
        <time>2020-08-16T14:50:40Z</time>
      </trkpt>
      <trkpt lat="45.18656" lon="3.43678">
        <ele>590.003</ele>
        <time>2020-08-16T14:50:48Z</time>
      </trkpt>
      <trkpt lat="45.18653" lon="3.43674">
        <ele>589.742</ele>
        <time>2020-08-16T14:50:52Z</time>
      </trkpt>
      <trkpt lat="45.18652" lon="3.43673">
        <ele>589.751</ele>
        <time>2020-08-16T14:50:53Z</time>
      </trkpt>
      <trkpt lat="45.1865" lon="3.43669">
        <ele>588.926</ele>
        <time>2020-08-16T14:50:57Z</time>
      </trkpt>
      <trkpt lat="45.18644" lon="3.4365">
        <ele>587.415</ele>
        <time>2020-08-16T14:51:09Z</time>
      </trkpt>
      <trkpt lat="45.1864" lon="3.43641">
        <ele>585.033</ele>
        <time>2020-08-16T14:51:17Z</time>
      </trkpt>
      <trkpt lat="45.18639" lon="3.43641">
        <ele>585.142</ele>
        <time>2020-08-16T14:51:18Z</time>
      </trkpt>
      <trkpt lat="45.18638" lon="3.43638">
        <ele>584.227</ele>
        <time>2020-08-16T14:51:21Z</time>
      </trkpt>
      <trkpt lat="45.18636" lon="3.43633">
        <ele>583.813</ele>
        <time>2020-08-16T14:51:28Z</time>
      </trkpt>
      <trkpt lat="45.18633" lon="3.4363">
        <ele>584.127</ele>
        <time>2020-08-16T14:51:34Z</time>
      </trkpt>
      <trkpt lat="45.18632" lon="3.43626">
        <ele>581.348</ele>
        <time>2020-08-16T14:51:38Z</time>
      </trkpt>
      <trkpt lat="45.1863" lon="3.43623">
        <ele>579.061</ele>
        <time>2020-08-16T14:51:41Z</time>
      </trkpt>
      <trkpt lat="45.18627" lon="3.4362">
        <ele>577.748</ele>
        <time>2020-08-16T14:51:45Z</time>
      </trkpt>
      <trkpt lat="45.18627" lon="3.4362">
        <ele>577.478</ele>
        <time>2020-08-16T14:51:46Z</time>
      </trkpt>
      <trkpt lat="45.18621" lon="3.43612">
        <ele>576.515</ele>
        <time>2020-08-16T14:51:53Z</time>
      </trkpt>
      <trkpt lat="45.18615" lon="3.43604">
        <ele>573.753</ele>
        <time>2020-08-16T14:51:59Z</time>
      </trkpt>
      <trkpt lat="45.18611" lon="3.43597">
        <ele>573.299</ele>
        <time>2020-08-16T14:52:06Z</time>
      </trkpt>
      <trkpt lat="45.18611" lon="3.43594">
        <ele>573.844</ele>
        <time>2020-08-16T14:52:09Z</time>
      </trkpt>
      <trkpt lat="45.18611" lon="3.43594">
        <ele>573.844</ele>
        <time>2020-08-16T14:52:09Z</time>
      </trkpt>
      <trkpt lat="45.18611" lon="3.43595">
        <ele>573.657</ele>
        <time>2020-08-16T14:52:10Z</time>
      </trkpt>
      <trkpt lat="45.18613" lon="3.43592">
        <ele>571.861</ele>
        <time>2020-08-16T14:52:17Z</time>
      </trkpt>
      <trkpt lat="45.18614" lon="3.43587">
        <ele>572.002</ele>
        <time>2020-08-16T14:52:21Z</time>
      </trkpt>
      <trkpt lat="45.18614" lon="3.43582">
        <ele>571.714</ele>
        <time>2020-08-16T14:52:24Z</time>
      </trkpt>
      <trkpt lat="45.18614" lon="3.43578">
        <ele>572.136</ele>
        <time>2020-08-16T14:52:29Z</time>
      </trkpt>
      <trkpt lat="45.18614" lon="3.43577">
        <ele>571.906</ele>
        <time>2020-08-16T14:52:30Z</time>
      </trkpt>
      <trkpt lat="45.18611" lon="3.43575">
        <ele>570.949</ele>
        <time>2020-08-16T14:52:33Z</time>
      </trkpt>
      <trkpt lat="45.18609" lon="3.43573">
        <ele>570.843</ele>
        <time>2020-08-16T14:52:35Z</time>
      </trkpt>
      <trkpt lat="45.18606" lon="3.43571">
        <ele>571.286</ele>
        <time>2020-08-16T14:52:38Z</time>
      </trkpt>
      <trkpt lat="45.18597" lon="3.43574">
        <ele>569.186</ele>
        <time>2020-08-16T14:52:50Z</time>
      </trkpt>
      <trkpt lat="45.18592" lon="3.43577">
        <ele>567.295</ele>
        <time>2020-08-16T14:52:56Z</time>
      </trkpt>
      <trkpt lat="45.18585" lon="3.43583">
        <ele>566.814</ele>
        <time>2020-08-16T14:53:03Z</time>
      </trkpt>
      <trkpt lat="45.18584" lon="3.43583">
        <ele>566.855</ele>
        <time>2020-08-16T14:53:04Z</time>
      </trkpt>
      <trkpt lat="45.18582" lon="3.4358">
        <ele>566.977</ele>
        <time>2020-08-16T14:53:08Z</time>
      </trkpt>
      <trkpt lat="45.18581" lon="3.43576">
        <ele>567.556</ele>
        <time>2020-08-16T14:53:11Z</time>
      </trkpt>
      <trkpt lat="45.18581" lon="3.43571">
        <ele>565.669</ele>
        <time>2020-08-16T14:53:14Z</time>
      </trkpt>
      <trkpt lat="45.18581" lon="3.4357">
        <ele>565.59</ele>
        <time>2020-08-16T14:53:15Z</time>
      </trkpt>
      <trkpt lat="45.18581" lon="3.43565">
        <ele>565.778</ele>
        <time>2020-08-16T14:53:18Z</time>
      </trkpt>
      <trkpt lat="45.1858" lon="3.43557">
        <ele>565.134</ele>
        <time>2020-08-16T14:53:23Z</time>
      </trkpt>
      <trkpt lat="45.1858" lon="3.43556">
        <ele>564.852</ele>
        <time>2020-08-16T14:53:24Z</time>
      </trkpt>
      <trkpt lat="45.18579" lon="3.43555">
        <ele>564.637</ele>
        <time>2020-08-16T14:53:25Z</time>
      </trkpt>
      <trkpt lat="45.1858" lon="3.43553">
        <ele>564.216</ele>
        <time>2020-08-16T14:53:27Z</time>
      </trkpt>
      <trkpt lat="45.1858" lon="3.4355">
        <ele>563.588</ele>
        <time>2020-08-16T14:53:29Z</time>
      </trkpt>
      <trkpt lat="45.1858" lon="3.43544">
        <ele>564.028</ele>
        <time>2020-08-16T14:53:34Z</time>
      </trkpt>
      <trkpt lat="45.1858" lon="3.43542">
        <ele>563.923</ele>
        <time>2020-08-16T14:53:36Z</time>
      </trkpt>
      <trkpt lat="45.18579" lon="3.43539">
        <ele>562.831</ele>
        <time>2020-08-16T14:53:39Z</time>
      </trkpt>
      <trkpt lat="45.18579" lon="3.43536">
        <ele>562.074</ele>
        <time>2020-08-16T14:53:41Z</time>
      </trkpt>
      <trkpt lat="45.1858" lon="3.43532">
        <ele>562.048</ele>
        <time>2020-08-16T14:53:44Z</time>
      </trkpt>
      <trkpt lat="45.1858" lon="3.4353">
        <ele>561.917</ele>
        <time>2020-08-16T14:53:45Z</time>
      </trkpt>
      <trkpt lat="45.18579" lon="3.43521">
        <ele>560.745</ele>
        <time>2020-08-16T14:53:50Z</time>
      </trkpt>
      <trkpt lat="45.18578" lon="3.43511">
        <ele>560.508</ele>
        <time>2020-08-16T14:53:56Z</time>
      </trkpt>
      <trkpt lat="45.18578" lon="3.43507">
        <ele>559.842</ele>
        <time>2020-08-16T14:53:59Z</time>
      </trkpt>
      <trkpt lat="45.18578" lon="3.43507">
        <ele>559.157</ele>
        <time>2020-08-16T14:54:00Z</time>
      </trkpt>
      <trkpt lat="45.18578" lon="3.43507">
        <ele>559.157</ele>
        <time>2020-08-16T14:54:00Z</time>
      </trkpt>
      <trkpt lat="45.18578" lon="3.43506">
        <ele>559.17</ele>
        <time>2020-08-16T14:54:01Z</time>
      </trkpt>
      <trkpt lat="45.18578" lon="3.43506">
        <ele>559.17</ele>
        <time>2020-08-16T14:54:01Z</time>
      </trkpt>
      <trkpt lat="45.18578" lon="3.43506">
        <ele>558.929</ele>
        <time>2020-08-16T14:54:02Z</time>
      </trkpt>
      <trkpt lat="45.18578" lon="3.43506">
        <ele>558.929</ele>
        <time>2020-08-16T14:54:02Z</time>
      </trkpt>
      <trkpt lat="45.18578" lon="3.43505">
        <ele>558.875</ele>
        <time>2020-08-16T14:54:03Z</time>
      </trkpt>
      <trkpt lat="45.18578" lon="3.43503">
        <ele>558.625</ele>
        <time>2020-08-16T14:54:07Z</time>
      </trkpt>
      <trkpt lat="45.18578" lon="3.43503">
        <ele>558.625</ele>
        <time>2020-08-16T14:54:07Z</time>
      </trkpt>
      <trkpt lat="45.18578" lon="3.43502">
        <ele>558.738</ele>
        <time>2020-08-16T14:54:08Z</time>
      </trkpt>
      <trkpt lat="45.18578" lon="3.43502">
        <ele>558.295</ele>
        <time>2020-08-16T14:54:09Z</time>
      </trkpt>
      <trkpt lat="45.18578" lon="3.43502">
        <ele>558.295</ele>
        <time>2020-08-16T14:54:09Z</time>
      </trkpt>
      <trkpt lat="45.18578" lon="3.43501">
        <ele>557.261</ele>
        <time>2020-08-16T14:54:10Z</time>
      </trkpt>
      <trkpt lat="45.18578" lon="3.43501">
        <ele>556.792</ele>
        <time>2020-08-16T14:54:11Z</time>
      </trkpt>
      <trkpt lat="45.18578" lon="3.43501">
        <ele>556.792</ele>
        <time>2020-08-16T14:54:11Z</time>
      </trkpt>
      <trkpt lat="45.18579" lon="3.43501">
        <ele>557.066</ele>
        <time>2020-08-16T14:54:12Z</time>
      </trkpt>
      <trkpt lat="45.18579" lon="3.43501">
        <ele>556.477</ele>
        <time>2020-08-16T14:54:13Z</time>
      </trkpt>
      <trkpt lat="45.18579" lon="3.43501">
        <ele>554.69</ele>
        <time>2020-08-16T14:54:15Z</time>
      </trkpt>
      <trkpt lat="45.18579" lon="3.435">
        <ele>554.228</ele>
        <time>2020-08-16T14:54:16Z</time>
      </trkpt>
      <trkpt lat="45.18579" lon="3.435">
        <ele>554.399</ele>
        <time>2020-08-16T14:54:18Z</time>
      </trkpt>
      <trkpt lat="45.18579" lon="3.435">
        <ele>554.932</ele>
        <time>2020-08-16T14:54:19Z</time>
      </trkpt>
      <trkpt lat="45.18578" lon="3.435">
        <ele>553.438</ele>
        <time>2020-08-16T14:54:20Z</time>
      </trkpt>
      <trkpt lat="45.18578" lon="3.435">
        <ele>553.438</ele>
        <time>2020-08-16T14:54:20Z</time>
      </trkpt>
      <trkpt lat="45.18578" lon="3.435">
        <ele>553.489</ele>
        <time>2020-08-16T14:54:21Z</time>
      </trkpt>
      <trkpt lat="45.18578" lon="3.435">
        <ele>554.174</ele>
        <time>2020-08-16T14:54:48Z</time>
      </trkpt>
      <trkpt lat="45.18578" lon="3.43499">
        <ele>555.218</ele>
        <time>2020-08-16T14:54:49Z</time>
      </trkpt>
      <trkpt lat="45.18578" lon="3.43499">
        <ele>555.201</ele>
        <time>2020-08-16T14:54:50Z</time>
      </trkpt>
      <trkpt lat="45.18578" lon="3.43499">
        <ele>555.166</ele>
        <time>2020-08-16T14:55:09Z</time>
      </trkpt>
      <trkpt lat="45.18577" lon="3.43498">
        <ele>554.56</ele>
        <time>2020-08-16T14:55:10Z</time>
      </trkpt>
      <trkpt lat="45.18577" lon="3.43498">
        <ele>553.085</ele>
        <time>2020-08-16T14:55:11Z</time>
      </trkpt>
      <trkpt lat="45.18577" lon="3.43498">
        <ele>551.953</ele>
        <time>2020-08-16T14:55:12Z</time>
      </trkpt>
      <trkpt lat="45.18577" lon="3.43498">
        <ele>550.929</ele>
        <time>2020-08-16T14:55:13Z</time>
      </trkpt>
      <trkpt lat="45.18577" lon="3.43498">
        <ele>550.008</ele>
        <time>2020-08-16T14:55:22Z</time>
      </trkpt>
      <trkpt lat="45.18577" lon="3.43503">
        <ele>549.121</ele>
        <time>2020-08-16T14:55:23Z</time>
      </trkpt>
      <trkpt lat="45.18577" lon="3.43503">
        <ele>549.815</ele>
        <time>2020-08-16T14:55:25Z</time>
      </trkpt>
      <trkpt lat="45.18577" lon="3.43503">
        <ele>547.615</ele>
        <time>2020-08-16T14:56:22Z</time>
      </trkpt>
      <trkpt lat="45.18576" lon="3.43505">
        <ele>547.884</ele>
        <time>2020-08-16T14:56:23Z</time>
      </trkpt>
      <trkpt lat="45.18576" lon="3.43505">
        <ele>548.807</ele>
        <time>2020-08-16T14:56:24Z</time>
      </trkpt>
      <trkpt lat="45.18576" lon="3.43505">
        <ele>549.306</ele>
        <time>2020-08-16T14:56:25Z</time>
      </trkpt>
      <trkpt lat="45.18575" lon="3.43504">
        <ele>550.122</ele>
        <time>2020-08-16T14:56:26Z</time>
      </trkpt>
      <trkpt lat="45.18575" lon="3.43504">
        <ele>550.457</ele>
        <time>2020-08-16T14:56:28Z</time>
      </trkpt>
      <trkpt lat="45.18575" lon="3.43504">
        <ele>553.413</ele>
        <time>2020-08-16T14:57:43Z</time>
      </trkpt>
      <trkpt lat="45.18576" lon="3.43503">
        <ele>553.497</ele>
        <time>2020-08-16T14:57:44Z</time>
      </trkpt>
      <trkpt lat="45.18574" lon="3.43499">
        <ele>551.072</ele>
        <time>2020-08-16T14:57:48Z</time>
      </trkpt>
      <trkpt lat="45.1857" lon="3.43494">
        <ele>552.56</ele>
        <time>2020-08-16T14:57:53Z</time>
      </trkpt>
      <trkpt lat="45.18568" lon="3.43493">
        <ele>551.771</ele>
        <time>2020-08-16T14:57:55Z</time>
      </trkpt>
      <trkpt lat="45.18562" lon="3.43487">
        <ele>553.624</ele>
        <time>2020-08-16T14:58:03Z</time>
      </trkpt>
      <trkpt lat="45.18554" lon="3.43495">
        <ele>554.248</ele>
        <time>2020-08-16T14:58:15Z</time>
      </trkpt>
      <trkpt lat="45.18553" lon="3.43498">
        <ele>554.309</ele>
        <time>2020-08-16T14:58:18Z</time>
      </trkpt>
      <trkpt lat="45.1855" lon="3.43506">
        <ele>554.879</ele>
        <time>2020-08-16T14:58:25Z</time>
      </trkpt>
      <trkpt lat="45.18547" lon="3.4351">
        <ele>556.936</ele>
        <time>2020-08-16T14:58:29Z</time>
      </trkpt>
      <trkpt lat="45.18543" lon="3.43513">
        <ele>559.351</ele>
        <time>2020-08-16T14:58:34Z</time>
      </trkpt>
      <trkpt lat="45.18531" lon="3.43527">
        <ele>561.109</ele>
        <time>2020-08-16T14:58:57Z</time>
      </trkpt>
      <trkpt lat="45.18517" lon="3.43543">
        <ele>563.612</ele>
        <time>2020-08-16T14:59:17Z</time>
      </trkpt>
      <trkpt lat="45.18516" lon="3.43543">
        <ele>563.811</ele>
        <time>2020-08-16T14:59:19Z</time>
      </trkpt>
      <trkpt lat="45.18515" lon="3.43544">
        <ele>564.028</ele>
        <time>2020-08-16T14:59:20Z</time>
      </trkpt>
      <trkpt lat="45.18512" lon="3.43548">
        <ele>564.196</ele>
        <time>2020-08-16T14:59:27Z</time>
      </trkpt>
      <trkpt lat="45.1851" lon="3.4355">
        <ele>565.313</ele>
        <time>2020-08-16T14:59:32Z</time>
      </trkpt>
      <trkpt lat="45.18505" lon="3.43554">
        <ele>564.862</ele>
        <time>2020-08-16T14:59:39Z</time>
      </trkpt>
      <trkpt lat="45.18504" lon="3.43556">
        <ele>565.449</ele>
        <time>2020-08-16T14:59:43Z</time>
      </trkpt>
      <trkpt lat="45.18499" lon="3.43559">
        <ele>566.385</ele>
        <time>2020-08-16T14:59:54Z</time>
      </trkpt>
      <trkpt lat="45.18499" lon="3.43559">
        <ele>566.817</ele>
        <time>2020-08-16T14:59:55Z</time>
      </trkpt>
      <trkpt lat="45.18498" lon="3.43559">
        <ele>566.985</ele>
        <time>2020-08-16T14:59:56Z</time>
      </trkpt>
      <trkpt lat="45.18496" lon="3.43559">
        <ele>567.674</ele>
        <time>2020-08-16T14:59:59Z</time>
      </trkpt>
      <trkpt lat="45.18495" lon="3.4356">
        <ele>566.505</ele>
        <time>2020-08-16T15:00:02Z</time>
      </trkpt>
      <trkpt lat="45.18495" lon="3.43561">
        <ele>567.029</ele>
        <time>2020-08-16T15:00:03Z</time>
      </trkpt>
      <trkpt lat="45.18495" lon="3.43561">
        <ele>568.328</ele>
        <time>2020-08-16T15:00:05Z</time>
      </trkpt>
      <trkpt lat="45.18495" lon="3.43561">
        <ele>567.667</ele>
        <time>2020-08-16T15:00:07Z</time>
      </trkpt>
      <trkpt lat="45.18495" lon="3.43561">
        <ele>567.894</ele>
        <time>2020-08-16T15:00:08Z</time>
      </trkpt>
      <trkpt lat="45.18493" lon="3.43561">
        <ele>567.231</ele>
        <time>2020-08-16T15:00:11Z</time>
      </trkpt>
      <trkpt lat="45.18493" lon="3.4356">
        <ele>567.892</ele>
        <time>2020-08-16T15:00:12Z</time>
      </trkpt>
      <trkpt lat="45.18485" lon="3.43558">
        <ele>568.413</ele>
        <time>2020-08-16T15:00:22Z</time>
      </trkpt>
      <trkpt lat="45.18479" lon="3.43547">
        <ele>568.812</ele>
        <time>2020-08-16T15:00:35Z</time>
      </trkpt>
      <trkpt lat="45.18478" lon="3.43544">
        <ele>568.657</ele>
        <time>2020-08-16T15:00:36Z</time>
      </trkpt>
      <trkpt lat="45.18477" lon="3.43542">
        <ele>569.915</ele>
        <time>2020-08-16T15:00:38Z</time>
      </trkpt>
      <trkpt lat="45.18469" lon="3.4353">
        <ele>571.072</ele>
        <time>2020-08-16T15:00:48Z</time>
      </trkpt>
      <trkpt lat="45.18467" lon="3.43528">
        <ele>571.06</ele>
        <time>2020-08-16T15:00:51Z</time>
      </trkpt>
      <trkpt lat="45.18465" lon="3.43526">
        <ele>572.271</ele>
        <time>2020-08-16T15:00:54Z</time>
      </trkpt>
      <trkpt lat="45.1846" lon="3.43522">
        <ele>575.205</ele>
        <time>2020-08-16T15:01:00Z</time>
      </trkpt>
      <trkpt lat="45.18456" lon="3.43521">
        <ele>576.586</ele>
        <time>2020-08-16T15:01:04Z</time>
      </trkpt>
      <trkpt lat="45.18455" lon="3.43522">
        <ele>575.63</ele>
        <time>2020-08-16T15:01:07Z</time>
      </trkpt>
      <trkpt lat="45.18454" lon="3.4352">
        <ele>575.751</ele>
        <time>2020-08-16T15:01:09Z</time>
      </trkpt>
      <trkpt lat="45.18447" lon="3.43512">
        <ele>577.862</ele>
        <time>2020-08-16T15:01:16Z</time>
      </trkpt>
      <trkpt lat="45.18438" lon="3.43503">
        <ele>580.468</ele>
        <time>2020-08-16T15:01:29Z</time>
      </trkpt>
      <trkpt lat="45.18432" lon="3.43502">
        <ele>581.555</ele>
        <time>2020-08-16T15:01:34Z</time>
      </trkpt>
      <trkpt lat="45.18427" lon="3.43502">
        <ele>579.491</ele>
        <time>2020-08-16T15:01:38Z</time>
      </trkpt>
      <trkpt lat="45.18421" lon="3.43502">
        <ele>578.885</ele>
        <time>2020-08-16T15:01:44Z</time>
      </trkpt>
      <trkpt lat="45.18409" lon="3.43494">
        <ele>581.511</ele>
        <time>2020-08-16T15:01:58Z</time>
      </trkpt>
      <trkpt lat="45.18401" lon="3.43493">
        <ele>583.803</ele>
        <time>2020-08-16T15:02:06Z</time>
      </trkpt>
      <trkpt lat="45.18394" lon="3.4349">
        <ele>584.405</ele>
        <time>2020-08-16T15:02:13Z</time>
      </trkpt>
      <trkpt lat="45.18381" lon="3.43485">
        <ele>586.608</ele>
        <time>2020-08-16T15:02:29Z</time>
      </trkpt>
      <trkpt lat="45.18372" lon="3.43481">
        <ele>588.725</ele>
        <time>2020-08-16T15:02:40Z</time>
      </trkpt>
      <trkpt lat="45.18351" lon="3.43471">
        <ele>591.043</ele>
        <time>2020-08-16T15:03:05Z</time>
      </trkpt>
      <trkpt lat="45.18351" lon="3.43471">
        <ele>591.165</ele>
        <time>2020-08-16T15:03:06Z</time>
      </trkpt>
      <trkpt lat="45.1835" lon="3.43471">
        <ele>591.677</ele>
        <time>2020-08-16T15:03:07Z</time>
      </trkpt>
      <trkpt lat="45.18349" lon="3.4347">
        <ele>592.484</ele>
        <time>2020-08-16T15:03:10Z</time>
      </trkpt>
      <trkpt lat="45.18343" lon="3.43466">
        <ele>593.506</ele>
        <time>2020-08-16T15:03:17Z</time>
      </trkpt>
      <trkpt lat="45.18333" lon="3.43459">
        <ele>595.779</ele>
        <time>2020-08-16T15:03:29Z</time>
      </trkpt>
      <trkpt lat="45.18324" lon="3.43455">
        <ele>598.257</ele>
        <time>2020-08-16T15:03:39Z</time>
      </trkpt>
      <trkpt lat="45.18319" lon="3.43451">
        <ele>600.55</ele>
        <time>2020-08-16T15:03:44Z</time>
      </trkpt>
      <trkpt lat="45.18315" lon="3.43449">
        <ele>600.454</ele>
        <time>2020-08-16T15:03:48Z</time>
      </trkpt>
      <trkpt lat="45.18311" lon="3.43448">
        <ele>601.666</ele>
        <time>2020-08-16T15:03:52Z</time>
      </trkpt>
      <trkpt lat="45.18307" lon="3.43443">
        <ele>603.012</ele>
        <time>2020-08-16T15:03:56Z</time>
      </trkpt>
      <trkpt lat="45.183" lon="3.43439">
        <ele>605.019</ele>
        <time>2020-08-16T15:04:03Z</time>
      </trkpt>
      <trkpt lat="45.18283" lon="3.43423">
        <ele>607.352</ele>
        <time>2020-08-16T15:04:23Z</time>
      </trkpt>
      <trkpt lat="45.18283" lon="3.43422">
        <ele>607.728</ele>
        <time>2020-08-16T15:04:24Z</time>
      </trkpt>
      <trkpt lat="45.18283" lon="3.43422">
        <ele>607.728</ele>
        <time>2020-08-16T15:04:24Z</time>
      </trkpt>
      <trkpt lat="45.18282" lon="3.43422">
        <ele>608.313</ele>
        <time>2020-08-16T15:04:25Z</time>
      </trkpt>
      <trkpt lat="45.18273" lon="3.43414">
        <ele>609.345</ele>
        <time>2020-08-16T15:04:35Z</time>
      </trkpt>
      <trkpt lat="45.1827" lon="3.43412">
        <ele>609.3</ele>
        <time>2020-08-16T15:04:38Z</time>
      </trkpt>
      <trkpt lat="45.18256" lon="3.43402">
        <ele>611.512</ele>
        <time>2020-08-16T15:04:52Z</time>
      </trkpt>
      <trkpt lat="45.18252" lon="3.43399">
        <ele>612.213</ele>
        <time>2020-08-16T15:04:56Z</time>
      </trkpt>
      <trkpt lat="45.18252" lon="3.43399">
        <ele>611.794</ele>
        <time>2020-08-16T15:04:57Z</time>
      </trkpt>
      <trkpt lat="45.18248" lon="3.43399">
        <ele>612.802</ele>
        <time>2020-08-16T15:05:00Z</time>
      </trkpt>
      <trkpt lat="45.18244" lon="3.43397">
        <ele>614.115</ele>
        <time>2020-08-16T15:05:03Z</time>
      </trkpt>
      <trkpt lat="45.18218" lon="3.43381">
        <ele>616.15</ele>
        <time>2020-08-16T15:05:29Z</time>
      </trkpt>
      <trkpt lat="45.18198" lon="3.43379">
        <ele>618.691</ele>
        <time>2020-08-16T15:05:47Z</time>
      </trkpt>
      <trkpt lat="45.18191" lon="3.43378">
        <ele>619.3</ele>
        <time>2020-08-16T15:05:54Z</time>
      </trkpt>
      <trkpt lat="45.18181" lon="3.43382">
        <ele>619.908</ele>
        <time>2020-08-16T15:06:04Z</time>
      </trkpt>
      <trkpt lat="45.18178" lon="3.43382">
        <ele>620.377</ele>
        <time>2020-08-16T15:06:07Z</time>
      </trkpt>
      <trkpt lat="45.18174" lon="3.43383">
        <ele>621.209</ele>
        <time>2020-08-16T15:06:11Z</time>
      </trkpt>
      <trkpt lat="45.18159" lon="3.4338">
        <ele>623.507</ele>
        <time>2020-08-16T15:06:24Z</time>
      </trkpt>
      <trkpt lat="45.18156" lon="3.43378">
        <ele>623.758</ele>
        <time>2020-08-16T15:06:28Z</time>
      </trkpt>
      <trkpt lat="45.18153" lon="3.43377">
        <ele>624.071</ele>
        <time>2020-08-16T15:06:31Z</time>
      </trkpt>
      <trkpt lat="45.18146" lon="3.43376">
        <ele>626.088</ele>
        <time>2020-08-16T15:06:38Z</time>
      </trkpt>
      <trkpt lat="45.18141" lon="3.43378">
        <ele>627.104</ele>
        <time>2020-08-16T15:06:43Z</time>
      </trkpt>
      <trkpt lat="45.18136" lon="3.43378">
        <ele>629.143</ele>
        <time>2020-08-16T15:06:49Z</time>
      </trkpt>
      <trkpt lat="45.18125" lon="3.43375">
        <ele>631.174</ele>
        <time>2020-08-16T15:07:00Z</time>
      </trkpt>
      <trkpt lat="45.18111" lon="3.43373">
        <ele>632.199</ele>
        <time>2020-08-16T15:07:10Z</time>
      </trkpt>
      <trkpt lat="45.18108" lon="3.43373">
        <ele>631.165</ele>
        <time>2020-08-16T15:07:12Z</time>
      </trkpt>
      <trkpt lat="45.18093" lon="3.43373">
        <ele>629.13</ele>
        <time>2020-08-16T15:07:27Z</time>
      </trkpt>
      <trkpt lat="45.18084" lon="3.43376">
        <ele>630.325</ele>
        <time>2020-08-16T15:07:36Z</time>
      </trkpt>
      <trkpt lat="45.18078" lon="3.43381">
        <ele>632.772</ele>
        <time>2020-08-16T15:07:43Z</time>
      </trkpt>
      <trkpt lat="45.18057" lon="3.43403">
        <ele>632.862</ele>
        <time>2020-08-16T15:08:06Z</time>
      </trkpt>
      <trkpt lat="45.18042" lon="3.43428">
        <ele>633.716</ele>
        <time>2020-08-16T15:08:26Z</time>
      </trkpt>
      <trkpt lat="45.18035" lon="3.43433">
        <ele>633.769</ele>
        <time>2020-08-16T15:08:32Z</time>
      </trkpt>
      <trkpt lat="45.18022" lon="3.43434">
        <ele>633.027</ele>
        <time>2020-08-16T15:08:42Z</time>
      </trkpt>
      <trkpt lat="45.18003" lon="3.43431">
        <ele>632.766</ele>
        <time>2020-08-16T15:08:57Z</time>
      </trkpt>
      <trkpt lat="45.17975" lon="3.43413">
        <ele>635.272</ele>
        <time>2020-08-16T15:09:22Z</time>
      </trkpt>
      <trkpt lat="45.17943" lon="3.434">
        <ele>637.085</ele>
        <time>2020-08-16T15:09:50Z</time>
      </trkpt>
      <trkpt lat="45.17934" lon="3.43398">
        <ele>639.292</ele>
        <time>2020-08-16T15:09:57Z</time>
      </trkpt>
      <trkpt lat="45.17923" lon="3.43396">
        <ele>639.843</ele>
        <time>2020-08-16T15:10:06Z</time>
      </trkpt>
      <trkpt lat="45.1792" lon="3.43394">
        <ele>639.704</ele>
        <time>2020-08-16T15:10:11Z</time>
      </trkpt>
      <trkpt lat="45.17914" lon="3.43397">
        <ele>641.553</ele>
        <time>2020-08-16T15:10:17Z</time>
      </trkpt>
      <trkpt lat="45.17909" lon="3.43397">
        <ele>642.893</ele>
        <time>2020-08-16T15:10:20Z</time>
      </trkpt>
      <trkpt lat="45.17903" lon="3.43395">
        <ele>642.666</ele>
        <time>2020-08-16T15:10:26Z</time>
      </trkpt>
      <trkpt lat="45.17898" lon="3.43393">
        <ele>643.302</ele>
        <time>2020-08-16T15:10:31Z</time>
      </trkpt>
      <trkpt lat="45.17893" lon="3.43394">
        <ele>643.301</ele>
        <time>2020-08-16T15:10:34Z</time>
      </trkpt>
      <trkpt lat="45.17888" lon="3.43393">
        <ele>643.292</ele>
        <time>2020-08-16T15:10:38Z</time>
      </trkpt>
      <trkpt lat="45.17877" lon="3.43391">
        <ele>645.365</ele>
        <time>2020-08-16T15:10:48Z</time>
      </trkpt>
      <trkpt lat="45.17821" lon="3.4337">
        <ele>645.155</ele>
        <time>2020-08-16T15:11:36Z</time>
      </trkpt>
      <trkpt lat="45.178" lon="3.43352">
        <ele>647.171</ele>
        <time>2020-08-16T15:11:57Z</time>
      </trkpt>
      <trkpt lat="45.1774" lon="3.43317">
        <ele>645.103</ele>
        <time>2020-08-16T15:12:54Z</time>
      </trkpt>
      <trkpt lat="45.17735" lon="3.43315">
        <ele>643.903</ele>
        <time>2020-08-16T15:12:57Z</time>
      </trkpt>
      <trkpt lat="45.17725" lon="3.43317">
        <ele>643.832</ele>
        <time>2020-08-16T15:13:07Z</time>
      </trkpt>
      <trkpt lat="45.1772" lon="3.43316">
        <ele>644.946</ele>
        <time>2020-08-16T15:13:12Z</time>
      </trkpt>
      <trkpt lat="45.17712" lon="3.43315">
        <ele>647.418</ele>
        <time>2020-08-16T15:13:19Z</time>
      </trkpt>
      <trkpt lat="45.17696" lon="3.4331">
        <ele>649.644</ele>
        <time>2020-08-16T15:13:34Z</time>
      </trkpt>
      <trkpt lat="45.17689" lon="3.43307">
        <ele>650.693</ele>
        <time>2020-08-16T15:13:40Z</time>
      </trkpt>
      <trkpt lat="45.17665" lon="3.43295">
        <ele>651.647</ele>
        <time>2020-08-16T15:14:01Z</time>
      </trkpt>
      <trkpt lat="45.17654" lon="3.43295">
        <ele>653.841</ele>
        <time>2020-08-16T15:14:09Z</time>
      </trkpt>
      <trkpt lat="45.17648" lon="3.4329">
        <ele>654.918</ele>
        <time>2020-08-16T15:14:13Z</time>
      </trkpt>
      <trkpt lat="45.17645" lon="3.43292">
        <ele>655.794</ele>
        <time>2020-08-16T15:14:16Z</time>
      </trkpt>
      <trkpt lat="45.17641" lon="3.4329">
        <ele>656.419</ele>
        <time>2020-08-16T15:14:18Z</time>
      </trkpt>
      <trkpt lat="45.17589" lon="3.43274">
        <ele>657.875</ele>
        <time>2020-08-16T15:14:59Z</time>
      </trkpt>
      <trkpt lat="45.17582" lon="3.43273">
        <ele>658.58</ele>
        <time>2020-08-16T15:15:04Z</time>
      </trkpt>
      <trkpt lat="45.17566" lon="3.43267">
        <ele>660.623</ele>
        <time>2020-08-16T15:15:23Z</time>
      </trkpt>
      <trkpt lat="45.17563" lon="3.43266">
        <ele>660.735</ele>
        <time>2020-08-16T15:15:26Z</time>
      </trkpt>
      <trkpt lat="45.17554" lon="3.43261">
        <ele>658.26</ele>
        <time>2020-08-16T15:15:34Z</time>
      </trkpt>
      <trkpt lat="45.17541" lon="3.43255">
        <ele>658.635</ele>
        <time>2020-08-16T15:15:45Z</time>
      </trkpt>
      <trkpt lat="45.17479" lon="3.43205">
        <ele>659.215</ele>
        <time>2020-08-16T15:16:49Z</time>
      </trkpt>
      <trkpt lat="45.17473" lon="3.43201">
        <ele>657.183</ele>
        <time>2020-08-16T15:16:55Z</time>
      </trkpt>
      <trkpt lat="45.1747" lon="3.43199">
        <ele>654.59</ele>
        <time>2020-08-16T15:16:59Z</time>
      </trkpt>
      <trkpt lat="45.17444" lon="3.43186">
        <ele>656.072</ele>
        <time>2020-08-16T15:17:22Z</time>
      </trkpt>
      <trkpt lat="45.17443" lon="3.43185">
        <ele>656.483</ele>
        <time>2020-08-16T15:17:23Z</time>
      </trkpt>
      <trkpt lat="45.17438" lon="3.43181">
        <ele>656.453</ele>
        <time>2020-08-16T15:17:30Z</time>
      </trkpt>
      <trkpt lat="45.17424" lon="3.43175">
        <ele>656.814</ele>
        <time>2020-08-16T15:17:39Z</time>
      </trkpt>
      <trkpt lat="45.17404" lon="3.43168">
        <ele>659.163</ele>
        <time>2020-08-16T15:17:56Z</time>
      </trkpt>
      <trkpt lat="45.17392" lon="3.43167">
        <ele>661.902</ele>
        <time>2020-08-16T15:18:08Z</time>
      </trkpt>
      <trkpt lat="45.17376" lon="3.43161">
        <ele>660.999</ele>
        <time>2020-08-16T15:18:24Z</time>
      </trkpt>
      <trkpt lat="45.17367" lon="3.43162">
        <ele>663.827</ele>
        <time>2020-08-16T15:18:33Z</time>
      </trkpt>
      <trkpt lat="45.1735" lon="3.43162">
        <ele>661.129</ele>
        <time>2020-08-16T15:18:44Z</time>
      </trkpt>
      <trkpt lat="45.17318" lon="3.43165">
        <ele>663.429</ele>
        <time>2020-08-16T15:19:12Z</time>
      </trkpt>
      <trkpt lat="45.17304" lon="3.43165">
        <ele>664.531</ele>
        <time>2020-08-16T15:19:24Z</time>
      </trkpt>
      <trkpt lat="45.173" lon="3.43163">
        <ele>664.468</ele>
        <time>2020-08-16T15:19:28Z</time>
      </trkpt>
      <trkpt lat="45.17293" lon="3.43151">
        <ele>664.122</ele>
        <time>2020-08-16T15:19:39Z</time>
      </trkpt>
      <trkpt lat="45.17288" lon="3.43137">
        <ele>664.365</ele>
        <time>2020-08-16T15:19:48Z</time>
      </trkpt>
      <trkpt lat="45.17287" lon="3.43128">
        <ele>663.056</ele>
        <time>2020-08-16T15:19:53Z</time>
      </trkpt>
      <trkpt lat="45.17286" lon="3.43118">
        <ele>660.866</ele>
        <time>2020-08-16T15:20:00Z</time>
      </trkpt>
      <trkpt lat="45.17287" lon="3.43112">
        <ele>658.118</ele>
        <time>2020-08-16T15:20:04Z</time>
      </trkpt>
      <trkpt lat="45.17293" lon="3.43093">
        <ele>657.011</ele>
        <time>2020-08-16T15:20:17Z</time>
      </trkpt>
      <trkpt lat="45.17313" lon="3.43045">
        <ele>659.447</ele>
        <time>2020-08-16T15:20:50Z</time>
      </trkpt>
      <trkpt lat="45.1732" lon="3.43025">
        <ele>659.568</ele>
        <time>2020-08-16T15:21:03Z</time>
      </trkpt>
      <trkpt lat="45.17321" lon="3.43023">
        <ele>659.637</ele>
        <time>2020-08-16T15:21:05Z</time>
      </trkpt>
      <trkpt lat="45.1733" lon="3.43006">
        <ele>657.415</ele>
        <time>2020-08-16T15:21:20Z</time>
      </trkpt>
      <trkpt lat="45.17338" lon="3.42979">
        <ele>659.728</ele>
        <time>2020-08-16T15:21:38Z</time>
      </trkpt>
      <trkpt lat="45.17343" lon="3.42965">
        <ele>661.767</ele>
        <time>2020-08-16T15:21:48Z</time>
      </trkpt>
      <trkpt lat="45.17345" lon="3.42957">
        <ele>663.881</ele>
        <time>2020-08-16T15:21:53Z</time>
      </trkpt>
      <trkpt lat="45.17347" lon="3.42938">
        <ele>666.36</ele>
        <time>2020-08-16T15:22:05Z</time>
      </trkpt>
      <trkpt lat="45.17348" lon="3.42918">
        <ele>668.756</ele>
        <time>2020-08-16T15:22:16Z</time>
      </trkpt>
      <trkpt lat="45.17351" lon="3.42894">
        <ele>669.888</ele>
        <time>2020-08-16T15:22:30Z</time>
      </trkpt>
      <trkpt lat="45.17351" lon="3.42894">
        <ele>669.888</ele>
        <time>2020-08-16T15:22:31Z</time>
      </trkpt>
    </trkseg>
  </trk>
</gpx>